<?xml version="1.0" encoding="utf-8"?>
<gpx xmlns:xsi="http://www.w3.org/2001/XMLSchema-instance" xmlns:xsd="http://www.w3.org/2001/XMLSchema" version="1.1" creator="Shapelink.com" xmlns="http://www.topografix.com/GPX/1/1" xmlns:gpxtpx="http://www.garmin.com/xmlschemas/TrackPointExtension/v1">
  <metadata>
    <name>Cycling 41.08 km, 2020-06-06</name>
    <desc></desc>
    <author><name>Marian Moron</name></author> 
    <time>2020-06-06T09:47:39Z</time>
  </metadata>
  <trk>
    <name>Cycling 41.08 km, 2020-06-06</name>
    <trkseg>
      <trkpt lat="51.228970584083" lon="4.448552022347">
        <ele>0</ele>
        <time>2020-06-06T09:47:39Z</time>
      </trkpt>
      <trkpt lat="51.229361767356" lon="4.448996179228">
        <ele>0</ele>
        <time>2020-06-06T09:47:52Z</time>
      </trkpt>
      <trkpt lat="51.229484394553" lon="4.449860269299">
        <ele>0</ele>
        <time>2020-06-06T09:48:04Z</time>
      </trkpt>
      <trkpt lat="51.229622779722" lon="4.450718240583">
        <ele>0</ele>
        <time>2020-06-06T09:48:15Z</time>
      </trkpt>
      <trkpt lat="51.22967575333" lon="4.450934661241">
        <ele>0</ele>
        <time>2020-06-06T09:48:18Z</time>
      </trkpt>
      <trkpt lat="51.22971598645" lon="4.451056953162">
        <ele>0</ele>
        <time>2020-06-06T09:48:20Z</time>
      </trkpt>
      <trkpt lat="51.229812629757" lon="4.451900591397">
        <ele>0</ele>
        <time>2020-06-06T09:48:31Z</time>
      </trkpt>
      <trkpt lat="51.229977417911" lon="4.452779852707">
        <ele>0</ele>
        <time>2020-06-06T09:48:42Z</time>
      </trkpt>
      <trkpt lat="51.230080934376" lon="4.453371279571">
        <ele>0</ele>
        <time>2020-06-06T09:48:50Z</time>
      </trkpt>
      <trkpt lat="51.230234993698" lon="4.454209134295">
        <ele>0</ele>
        <time>2020-06-06T09:49:01Z</time>
      </trkpt>
      <trkpt lat="51.230298947595" lon="4.454582883216">
        <ele>0</ele>
        <time>2020-06-06T09:49:06Z</time>
      </trkpt>
      <trkpt lat="51.230283860175" lon="4.454713724675">
        <ele>0</ele>
        <time>2020-06-06T09:49:08Z</time>
      </trkpt>
      <trkpt lat="51.230189144705" lon="4.455129215458">
        <ele>0</ele>
        <time>2020-06-06T09:49:14Z</time>
      </trkpt>
      <trkpt lat="51.230234490784" lon="4.455282520409">
        <ele>0</ele>
        <time>2020-06-06T09:49:17Z</time>
      </trkpt>
      <trkpt lat="51.230356531248" lon="4.455392490937">
        <ele>0</ele>
        <time>2020-06-06T09:49:20Z</time>
      </trkpt>
      <trkpt lat="51.23058016034" lon="4.455606648482">
        <ele>0</ele>
        <time>2020-06-06T09:49:25Z</time>
      </trkpt>
      <trkpt lat="51.231077709924" lon="4.456040663264">
        <ele>0</ele>
        <time>2020-06-06T09:49:36Z</time>
      </trkpt>
      <trkpt lat="51.231303099215" lon="4.456265968736">
        <ele>0</ele>
        <time>2020-06-06T09:49:41Z</time>
      </trkpt>
      <trkpt lat="51.231333106417" lon="4.456403767172">
        <ele>0</ele>
        <time>2020-06-06T09:49:43Z</time>
      </trkpt>
      <trkpt lat="51.231266973226" lon="4.45730498906">
        <ele>0</ele>
        <time>2020-06-06T09:49:54Z</time>
      </trkpt>
      <trkpt lat="51.23126412338" lon="4.457643785458">
        <ele>0</ele>
        <time>2020-06-06T09:49:58Z</time>
      </trkpt>
      <trkpt lat="51.231318354273" lon="4.458380722106">
        <ele>0</ele>
        <time>2020-06-06T09:50:07Z</time>
      </trkpt>
      <trkpt lat="51.231297315704" lon="4.458542241319">
        <ele>0</ele>
        <time>2020-06-06T09:50:09Z</time>
      </trkpt>
      <trkpt lat="51.231207461736" lon="4.458649110544">
        <ele>0</ele>
        <time>2020-06-06T09:50:11Z</time>
      </trkpt>
      <trkpt lat="51.231099670502" lon="4.458702335609">
        <ele>0</ele>
        <time>2020-06-06T09:50:13Z</time>
      </trkpt>
      <trkpt lat="51.2305667493" lon="4.45884139133">
        <ele>0</ele>
        <time>2020-06-06T09:50:23Z</time>
      </trkpt>
      <trkpt lat="51.23048041573" lon="4.458888413789">
        <ele>0</ele>
        <time>2020-06-06T09:50:25Z</time>
      </trkpt>
      <trkpt lat="51.230427693579" lon="4.458987152571">
        <ele>0</ele>
        <time>2020-06-06T09:50:27Z</time>
      </trkpt>
      <trkpt lat="51.230371199573" lon="4.459328966453">
        <ele>0</ele>
        <time>2020-06-06T09:51:37Z</time>
      </trkpt>
      <trkpt lat="51.230474129305" lon="4.459941431886">
        <ele>0</ele>
        <time>2020-06-06T09:51:50Z</time>
      </trkpt>
      <trkpt lat="51.230501873394" lon="4.459950651976">
        <ele>0</ele>
        <time>2020-06-06T09:51:52Z</time>
      </trkpt>
      <trkpt lat="51.231065807626" lon="4.459729621273">
        <ele>0</ele>
        <time>2020-06-06T09:52:07Z</time>
      </trkpt>
      <trkpt lat="51.231637788482" lon="4.45975166567">
        <ele>0</ele>
        <time>2020-06-06T09:52:18Z</time>
      </trkpt>
      <trkpt lat="51.231689001891" lon="4.459768345651">
        <ele>0</ele>
        <time>2020-06-06T09:52:19Z</time>
      </trkpt>
      <trkpt lat="51.231773407624" lon="4.459867671166">
        <ele>0</ele>
        <time>2020-06-06T09:52:21Z</time>
      </trkpt>
      <trkpt lat="51.23182151973" lon="4.460018461547">
        <ele>0</ele>
        <time>2020-06-06T09:52:23Z</time>
      </trkpt>
      <trkpt lat="51.231974321767" lon="4.460892526079">
        <ele>0</ele>
        <time>2020-06-06T09:52:34Z</time>
      </trkpt>
      <trkpt lat="51.232142127405" lon="4.461748401888">
        <ele>0</ele>
        <time>2020-06-06T09:52:45Z</time>
      </trkpt>
      <trkpt lat="51.232188898407" lon="4.462122402266">
        <ele>0</ele>
        <time>2020-06-06T09:52:50Z</time>
      </trkpt>
      <trkpt lat="51.232192754081" lon="4.462276377769">
        <ele>0</ele>
        <time>2020-06-06T09:52:52Z</time>
      </trkpt>
      <trkpt lat="51.23235879952" lon="4.463161925504">
        <ele>0</ele>
        <time>2020-06-06T09:53:04Z</time>
      </trkpt>
      <trkpt lat="51.232436080638" lon="4.463961977859">
        <ele>0</ele>
        <time>2020-06-06T09:53:14Z</time>
      </trkpt>
      <trkpt lat="51.232256205064" lon="4.464780470394">
        <ele>0</ele>
        <time>2020-06-06T09:53:25Z</time>
      </trkpt>
      <trkpt lat="51.231919755598" lon="4.465524699295">
        <ele>0</ele>
        <time>2020-06-06T09:53:37Z</time>
      </trkpt>
      <trkpt lat="51.231591268937" lon="4.466226515782">
        <ele>0</ele>
        <time>2020-06-06T09:53:48Z</time>
      </trkpt>
      <trkpt lat="51.231270745081" lon="4.466922716396">
        <ele>0</ele>
        <time>2020-06-06T09:53:59Z</time>
      </trkpt>
      <trkpt lat="51.231186758443" lon="4.467241312415">
        <ele>0</ele>
        <time>2020-06-06T09:54:05Z</time>
      </trkpt>
      <trkpt lat="51.23124233044" lon="4.467235528904">
        <ele>0</ele>
        <time>2020-06-06T09:54:07Z</time>
      </trkpt>
      <trkpt lat="51.231726385165" lon="4.467272325445">
        <ele>0</ele>
        <time>2020-06-06T09:54:18Z</time>
      </trkpt>
      <trkpt lat="51.23181984335" lon="4.46722999685">
        <ele>0</ele>
        <time>2020-06-06T09:54:20Z</time>
      </trkpt>
      <trkpt lat="51.232005418616" lon="4.467041571738">
        <ele>0</ele>
        <time>2020-06-06T09:54:24Z</time>
      </trkpt>
      <trkpt lat="51.232082364458" lon="4.466932774676">
        <ele>0</ele>
        <time>2020-06-06T09:54:26Z</time>
      </trkpt>
      <trkpt lat="51.23243423662" lon="4.466244704505">
        <ele>0</ele>
        <time>2020-06-06T09:54:37Z</time>
      </trkpt>
      <trkpt lat="51.23274017597" lon="4.465512294083">
        <ele>0</ele>
        <time>2020-06-06T09:54:48Z</time>
      </trkpt>
      <trkpt lat="51.233074529961" lon="4.464799078212">
        <ele>0</ele>
        <time>2020-06-06T09:55:02Z</time>
      </trkpt>
      <trkpt lat="51.233392706885" lon="4.464027021403">
        <ele>0</ele>
        <time>2020-06-06T09:55:15Z</time>
      </trkpt>
      <trkpt lat="51.23343755005" lon="4.463932305933">
        <ele>0</ele>
        <time>2020-06-06T09:55:17Z</time>
      </trkpt>
      <trkpt lat="51.233510640218" lon="4.464031547629">
        <ele>0</ele>
        <time>2020-06-06T09:55:20Z</time>
      </trkpt>
      <trkpt lat="51.233592950476" lon="4.464413175536">
        <ele>0</ele>
        <time>2020-06-06T09:55:26Z</time>
      </trkpt>
      <trkpt lat="51.233724043392" lon="4.465324036609">
        <ele>0</ele>
        <time>2020-06-06T09:55:38Z</time>
      </trkpt>
      <trkpt lat="51.23374600397" lon="4.465472144782">
        <ele>0</ele>
        <time>2020-06-06T09:55:40Z</time>
      </trkpt>
      <trkpt lat="51.233873744126" lon="4.466335983396">
        <ele>0</ele>
        <time>2020-06-06T09:55:51Z</time>
      </trkpt>
      <trkpt lat="51.234010788191" lon="4.467197475078">
        <ele>0</ele>
        <time>2020-06-06T09:56:02Z</time>
      </trkpt>
      <trkpt lat="51.234142300202" lon="4.468061313692">
        <ele>0</ele>
        <time>2020-06-06T09:56:13Z</time>
      </trkpt>
      <trkpt lat="51.23426735815" lon="4.46889883314">
        <ele>0</ele>
        <time>2020-06-06T09:56:24Z</time>
      </trkpt>
      <trkpt lat="51.23440314493" lon="4.469795444983">
        <ele>0</ele>
        <time>2020-06-06T09:56:35Z</time>
      </trkpt>
      <trkpt lat="51.23453725533" lon="4.47070597078">
        <ele>0</ele>
        <time>2020-06-06T09:56:46Z</time>
      </trkpt>
      <trkpt lat="51.234666504228" lon="4.471557236544">
        <ele>0</ele>
        <time>2020-06-06T09:56:56Z</time>
      </trkpt>
      <trkpt lat="51.234803967388" lon="4.47240246734">
        <ele>0</ele>
        <time>2020-06-06T09:57:06Z</time>
      </trkpt>
      <trkpt lat="51.234971102474" lon="4.473229928508">
        <ele>0</ele>
        <time>2020-06-06T09:57:16Z</time>
      </trkpt>
      <trkpt lat="51.235140584492" lon="4.474081194272">
        <ele>0</ele>
        <time>2020-06-06T09:57:27Z</time>
      </trkpt>
      <trkpt lat="51.235318616048" lon="4.474959449754">
        <ele>0</ele>
        <time>2020-06-06T09:57:38Z</time>
      </trkpt>
      <trkpt lat="51.235507711712" lon="4.475833933381">
        <ele>0</ele>
        <time>2020-06-06T09:57:49Z</time>
      </trkpt>
      <trkpt lat="51.235692113512" lon="4.476698945461">
        <ele>0</ele>
        <time>2020-06-06T09:58:00Z</time>
      </trkpt>
      <trkpt lat="51.235873665466" lon="4.477561610609">
        <ele>0</ele>
        <time>2020-06-06T09:58:11Z</time>
      </trkpt>
      <trkpt lat="51.23600911697" lon="4.478400387342">
        <ele>0</ele>
        <time>2020-06-06T09:58:22Z</time>
      </trkpt>
      <trkpt lat="51.236071059211" lon="4.479322731618">
        <ele>0</ele>
        <time>2020-06-06T09:58:33Z</time>
      </trkpt>
      <trkpt lat="51.236057229076" lon="4.480260582409">
        <ele>0</ele>
        <time>2020-06-06T09:58:45Z</time>
      </trkpt>
      <trkpt lat="51.236032921566" lon="4.481188123463">
        <ele>0</ele>
        <time>2020-06-06T09:58:56Z</time>
      </trkpt>
      <trkpt lat="51.235997466129" lon="4.482073000646">
        <ele>0</ele>
        <time>2020-06-06T09:59:07Z</time>
      </trkpt>
      <trkpt lat="51.235984725641" lon="4.482962739331">
        <ele>0</ele>
        <time>2020-06-06T09:59:18Z</time>
      </trkpt>
      <trkpt lat="51.23600241145" lon="4.483876534069">
        <ele>0</ele>
        <time>2020-06-06T09:59:29Z</time>
      </trkpt>
      <trkpt lat="51.23600827878" lon="4.484115585857">
        <ele>0</ele>
        <time>2020-06-06T09:59:32Z</time>
      </trkpt>
      <trkpt lat="51.236062006759" lon="4.484445162165">
        <ele>0</ele>
        <time>2020-06-06T09:59:38Z</time>
      </trkpt>
      <trkpt lat="51.236063012587" lon="4.484584217886">
        <ele>0</ele>
        <time>2020-06-06T09:59:40Z</time>
      </trkpt>
      <trkpt lat="51.236109867408" lon="4.485458030961">
        <ele>0</ele>
        <time>2020-06-06T09:59:51Z</time>
      </trkpt>
      <trkpt lat="51.23612143443" lon="4.48635581627">
        <ele>0</ele>
        <time>2020-06-06T10:00:02Z</time>
      </trkpt>
      <trkpt lat="51.236138533506" lon="4.4872250193">
        <ele>0</ele>
        <time>2020-06-06T10:00:12Z</time>
      </trkpt>
      <trkpt lat="51.236164768853" lon="4.488151638345">
        <ele>0</ele>
        <time>2020-06-06T10:00:22Z</time>
      </trkpt>
      <trkpt lat="51.236188238173" lon="4.489086974566">
        <ele>0</ele>
        <time>2020-06-06T10:00:32Z</time>
      </trkpt>
      <trkpt lat="51.236178012255" lon="4.489537166415">
        <ele>0</ele>
        <time>2020-06-06T10:00:37Z</time>
      </trkpt>
      <trkpt lat="51.236138365868" lon="4.489696925429">
        <ele>0</ele>
        <time>2020-06-06T10:00:39Z</time>
      </trkpt>
      <trkpt lat="51.23599151498" lon="4.490389940921">
        <ele>0</ele>
        <time>2020-06-06T10:00:55Z</time>
      </trkpt>
      <trkpt lat="51.23661764291" lon="4.490715493917">
        <ele>0</ele>
        <time>2020-06-06T10:01:26Z</time>
      </trkpt>
      <trkpt lat="51.23686071801" lon="4.490782884393">
        <ele>0</ele>
        <time>2020-06-06T10:01:32Z</time>
      </trkpt>
      <trkpt lat="51.237201106969" lon="4.49069931685">
        <ele>0</ele>
        <time>2020-06-06T10:01:39Z</time>
      </trkpt>
      <trkpt lat="51.237305377805" lon="4.490634189487">
        <ele>0</ele>
        <time>2020-06-06T10:01:41Z</time>
      </trkpt>
      <trkpt lat="51.237678120898" lon="4.490479124337">
        <ele>0</ele>
        <time>2020-06-06T10:01:48Z</time>
      </trkpt>
      <trkpt lat="51.237800915733" lon="4.490348785792">
        <ele>0</ele>
        <time>2020-06-06T10:01:51Z</time>
      </trkpt>
      <trkpt lat="51.237890937339" lon="4.490295979822">
        <ele>0</ele>
        <time>2020-06-06T10:01:53Z</time>
      </trkpt>
      <trkpt lat="51.238443975101" lon="4.490186260751">
        <ele>0</ele>
        <time>2020-06-06T10:02:06Z</time>
      </trkpt>
      <trkpt lat="51.238997348139" lon="4.490348618154">
        <ele>0</ele>
        <time>2020-06-06T10:02:20Z</time>
      </trkpt>
      <trkpt lat="51.239543848019" lon="4.490609462882">
        <ele>1.6</ele>
        <time>2020-06-06T10:02:35Z</time>
      </trkpt>
      <trkpt lat="51.240083977655" lon="4.490870642886">
        <ele>2.2</ele>
        <time>2020-06-06T10:02:48Z</time>
      </trkpt>
      <trkpt lat="51.240636512503" lon="4.491137857858">
        <ele>1.6</ele>
        <time>2020-06-06T10:02:58Z</time>
      </trkpt>
      <trkpt lat="51.241193489758" lon="4.491399373138">
        <ele>0.6</ele>
        <time>2020-06-06T10:03:06Z</time>
      </trkpt>
      <trkpt lat="51.241616105156" lon="4.491792903343">
        <ele>0</ele>
        <time>2020-06-06T10:03:12Z</time>
      </trkpt>
      <trkpt lat="51.241874183857" lon="4.492484410093">
        <ele>0</ele>
        <time>2020-06-06T10:03:18Z</time>
      </trkpt>
      <trkpt lat="51.241907040905" lon="4.492759671689">
        <ele>0</ele>
        <time>2020-06-06T10:03:20Z</time>
      </trkpt>
      <trkpt lat="51.241984238204" lon="4.493651505849">
        <ele>0</ele>
        <time>2020-06-06T10:03:27Z</time>
      </trkpt>
      <trkpt lat="51.242115582577" lon="4.494513416626">
        <ele>0</ele>
        <time>2020-06-06T10:03:35Z</time>
      </trkpt>
      <trkpt lat="51.242261008542" lon="4.495359150336">
        <ele>0</ele>
        <time>2020-06-06T10:03:44Z</time>
      </trkpt>
      <trkpt lat="51.242423449764" lon="4.496189712807">
        <ele>0</ele>
        <time>2020-06-06T10:03:53Z</time>
      </trkpt>
      <trkpt lat="51.242715894255" lon="4.49697652176">
        <ele>0</ele>
        <time>2020-06-06T10:04:02Z</time>
      </trkpt>
      <trkpt lat="51.243093163574" lon="4.497841030926">
        <ele>0</ele>
        <time>2020-06-06T10:04:12Z</time>
      </trkpt>
      <trkpt lat="51.243323079091" lon="4.498386692616">
        <ele>0</ele>
        <time>2020-06-06T10:04:19Z</time>
      </trkpt>
      <trkpt lat="51.243685009533" lon="4.499060345919">
        <ele>0</ele>
        <time>2020-06-06T10:04:29Z</time>
      </trkpt>
      <trkpt lat="51.243946273356" lon="4.49984229337">
        <ele>0</ele>
        <time>2020-06-06T10:04:40Z</time>
      </trkpt>
      <trkpt lat="51.244145259662" lon="4.500438330279">
        <ele>0</ele>
        <time>2020-06-06T10:04:49Z</time>
      </trkpt>
      <trkpt lat="51.244244249901" lon="4.500998827932">
        <ele>1.4</ele>
        <time>2020-06-06T10:04:58Z</time>
      </trkpt>
      <trkpt lat="51.244380036681" lon="4.501010143497">
        <ele>0.2</ele>
        <time>2020-06-06T10:05:03Z</time>
      </trkpt>
      <trkpt lat="51.244510961959" lon="4.50086488517">
        <ele>0</ele>
        <time>2020-06-06T10:05:07Z</time>
      </trkpt>
      <trkpt lat="51.244724868047" lon="4.500933952026">
        <ele>0</ele>
        <time>2020-06-06T10:05:14Z</time>
      </trkpt>
      <trkpt lat="51.245004152955" lon="4.501198820066">
        <ele>0.8</ele>
        <time>2020-06-06T10:05:24Z</time>
      </trkpt>
      <trkpt lat="51.245083110453" lon="4.501270150035">
        <ele>2.4</ele>
        <time>2020-06-06T10:05:26Z</time>
      </trkpt>
      <trkpt lat="51.2454697675" lon="4.501906000969">
        <ele>0</ele>
        <time>2020-06-06T10:05:38Z</time>
      </trkpt>
      <trkpt lat="51.245866650465" lon="4.502508491941">
        <ele>0.8</ele>
        <time>2020-06-06T10:05:49Z</time>
      </trkpt>
      <trkpt lat="51.246259258661" lon="4.503114084216">
        <ele>2.2</ele>
        <time>2020-06-06T10:06:00Z</time>
      </trkpt>
      <trkpt lat="51.246393788156" lon="4.503322206793">
        <ele>3</ele>
        <time>2020-06-06T10:06:04Z</time>
      </trkpt>
      <trkpt lat="51.246471823645" lon="4.50338867526">
        <ele>4.2</ele>
        <time>2020-06-06T10:06:06Z</time>
      </trkpt>
      <trkpt lat="51.247015557498" lon="4.503432847873">
        <ele>10.4</ele>
        <time>2020-06-06T10:06:17Z</time>
      </trkpt>
      <trkpt lat="51.247174981236" lon="4.503356321126">
        <ele>4.6</ele>
        <time>2020-06-06T10:06:20Z</time>
      </trkpt>
      <trkpt lat="51.247301296469" lon="4.503285242614">
        <ele>2.2</ele>
        <time>2020-06-06T10:06:23Z</time>
      </trkpt>
      <trkpt lat="51.247844443589" lon="4.503415664978">
        <ele>0</ele>
        <time>2020-06-06T10:06:36Z</time>
      </trkpt>
      <trkpt lat="51.248410557115" lon="4.5034020863">
        <ele>0</ele>
        <time>2020-06-06T10:06:46Z</time>
      </trkpt>
      <trkpt lat="51.248981113048" lon="4.503370905632">
        <ele>0</ele>
        <time>2020-06-06T10:06:56Z</time>
      </trkpt>
      <trkpt lat="51.249033499923" lon="4.503360847352">
        <ele>0</ele>
        <time>2020-06-06T10:06:57Z</time>
      </trkpt>
      <trkpt lat="51.249132909257" lon="4.503354560927">
        <ele>0</ele>
        <time>2020-06-06T10:06:59Z</time>
      </trkpt>
      <trkpt lat="51.249199964457" lon="4.503461765428">
        <ele>0</ele>
        <time>2020-06-06T10:07:01Z</time>
      </trkpt>
      <trkpt lat="51.249195773507" lon="4.503634600206">
        <ele>0</ele>
        <time>2020-06-06T10:07:03Z</time>
      </trkpt>
      <trkpt lat="51.249178674431" lon="4.504450578171">
        <ele>0</ele>
        <time>2020-06-06T10:07:12Z</time>
      </trkpt>
      <trkpt lat="51.249367351" lon="4.505221126238">
        <ele>0</ele>
        <time>2020-06-06T10:07:22Z</time>
      </trkpt>
      <trkpt lat="51.249328878079" lon="4.505658829056">
        <ele>0.8</ele>
        <time>2020-06-06T10:07:30Z</time>
      </trkpt>
      <trkpt lat="51.249883927497" lon="4.505923613277">
        <ele>0</ele>
        <time>2020-06-06T10:07:43Z</time>
      </trkpt>
      <trkpt lat="51.250413579758" lon="4.506227289514">
        <ele>2.4</ele>
        <time>2020-06-06T10:07:57Z</time>
      </trkpt>
      <trkpt lat="51.250973742135" lon="4.506478495057">
        <ele>4.4</ele>
        <time>2020-06-06T10:08:08Z</time>
      </trkpt>
      <trkpt lat="51.251283704797" lon="4.506602966272">
        <ele>6</ele>
        <time>2020-06-06T10:08:14Z</time>
      </trkpt>
      <trkpt lat="51.251841184966" lon="4.506883257008">
        <ele>5.6</ele>
        <time>2020-06-06T10:08:25Z</time>
      </trkpt>
      <trkpt lat="51.252394977099" lon="4.507155920215">
        <ele>4.8</ele>
        <time>2020-06-06T10:08:36Z</time>
      </trkpt>
      <trkpt lat="51.252736455705" lon="4.507317187971">
        <ele>5.4</ele>
        <time>2020-06-06T10:10:41Z</time>
      </trkpt>
      <trkpt lat="51.25325152346" lon="4.507606866435">
        <ele>4.4</ele>
        <time>2020-06-06T10:10:52Z</time>
      </trkpt>
      <trkpt lat="51.253804645041" lon="4.507895119976">
        <ele>3</ele>
        <time>2020-06-06T10:11:02Z</time>
      </trkpt>
      <trkpt lat="51.254341924831" lon="4.508147750442">
        <ele>0.8</ele>
        <time>2020-06-06T10:11:12Z</time>
      </trkpt>
      <trkpt lat="51.254892783299" lon="4.508420916563">
        <ele>1.2</ele>
        <time>2020-06-06T10:11:23Z</time>
      </trkpt>
      <trkpt lat="51.255431907107" lon="4.508693412132">
        <ele>2.6</ele>
        <time>2020-06-06T10:11:34Z</time>
      </trkpt>
      <trkpt lat="51.255970108906" lon="4.508978648189">
        <ele>3.8</ele>
        <time>2020-06-06T10:11:46Z</time>
      </trkpt>
      <trkpt lat="51.256509819447" lon="4.509242845677">
        <ele>3</ele>
        <time>2020-06-06T10:11:56Z</time>
      </trkpt>
      <trkpt lat="51.256763036646" lon="4.50937419005">
        <ele>3</ele>
        <time>2020-06-06T10:12:01Z</time>
      </trkpt>
      <trkpt lat="51.257323282842" lon="4.509661186306">
        <ele>3.8</ele>
        <time>2020-06-06T10:12:12Z</time>
      </trkpt>
      <trkpt lat="51.257879841002" lon="4.509942147594">
        <ele>4.2</ele>
        <time>2020-06-06T10:12:23Z</time>
      </trkpt>
      <trkpt lat="51.258425418873" lon="4.510210619851">
        <ele>4.4</ele>
        <time>2020-06-06T10:12:34Z</time>
      </trkpt>
      <trkpt lat="51.258964375043" lon="4.510494933899">
        <ele>3.8</ele>
        <time>2020-06-06T10:12:45Z</time>
      </trkpt>
      <trkpt lat="51.259518921547" lon="4.510774134988">
        <ele>4.2</ele>
        <time>2020-06-06T10:12:56Z</time>
      </trkpt>
      <trkpt lat="51.260082688141" lon="4.511051743516">
        <ele>4.6</ele>
        <time>2020-06-06T10:13:07Z</time>
      </trkpt>
      <trkpt lat="51.260644694536" lon="4.511318958488">
        <ele>4.8</ele>
        <time>2020-06-06T10:13:18Z</time>
      </trkpt>
      <trkpt lat="51.261170658761" lon="4.511614336644">
        <ele>5.4</ele>
        <time>2020-06-06T10:13:29Z</time>
      </trkpt>
      <trkpt lat="51.261625376836" lon="4.511818268271">
        <ele>5.2</ele>
        <time>2020-06-06T10:13:39Z</time>
      </trkpt>
      <trkpt lat="51.261704250515" lon="4.511768144509">
        <ele>5</ele>
        <time>2020-06-06T10:13:41Z</time>
      </trkpt>
      <trkpt lat="51.261772814457" lon="4.511658173981">
        <ele>5</ele>
        <time>2020-06-06T10:13:43Z</time>
      </trkpt>
      <trkpt lat="51.262055452125" lon="4.510923248989">
        <ele>1.6</ele>
        <time>2020-06-06T10:13:53Z</time>
      </trkpt>
      <trkpt lat="51.262358625448" lon="4.51012353191">
        <ele>0</ele>
        <time>2020-06-06T10:14:04Z</time>
      </trkpt>
      <trkpt lat="51.262659787115" lon="4.509340159536">
        <ele>0</ele>
        <time>2020-06-06T10:14:15Z</time>
      </trkpt>
      <trkpt lat="51.262976371478" lon="4.508637169583">
        <ele>0</ele>
        <time>2020-06-06T10:14:28Z</time>
      </trkpt>
      <trkpt lat="51.263299996637" lon="4.507927641748">
        <ele>0</ele>
        <time>2020-06-06T10:14:41Z</time>
      </trkpt>
      <trkpt lat="51.263579784459" lon="4.507178467526">
        <ele>2.2</ele>
        <time>2020-06-06T10:14:58Z</time>
      </trkpt>
      <trkpt lat="51.263789583416" lon="4.506578155848">
        <ele>2.8</ele>
        <time>2020-06-06T10:15:10Z</time>
      </trkpt>
      <trkpt lat="51.264040286045" lon="4.505752203422">
        <ele>1</ele>
        <time>2020-06-06T10:15:22Z</time>
      </trkpt>
      <trkpt lat="51.264341866807" lon="4.505015853507">
        <ele>0</ele>
        <time>2020-06-06T10:15:32Z</time>
      </trkpt>
      <trkpt lat="51.264582511156" lon="4.504289142777">
        <ele>4</ele>
        <time>2020-06-06T10:15:41Z</time>
      </trkpt>
      <trkpt lat="51.264866406109" lon="4.503481211436">
        <ele>3</ele>
        <time>2020-06-06T10:15:52Z</time>
      </trkpt>
      <trkpt lat="51.264971179859" lon="4.503101511366">
        <ele>3.2</ele>
        <time>2020-06-06T10:15:57Z</time>
      </trkpt>
      <trkpt lat="51.26504737133" lon="4.502794733826">
        <ele>2.4</ele>
        <time>2020-06-06T10:16:01Z</time>
      </trkpt>
      <trkpt lat="51.265262031789" lon="4.502299279717">
        <ele>0</ele>
        <time>2020-06-06T10:16:08Z</time>
      </trkpt>
      <trkpt lat="51.265333277939" lon="4.502178161262">
        <ele>0</ele>
        <time>2020-06-06T10:16:10Z</time>
      </trkpt>
      <trkpt lat="51.265601582558" lon="4.501414570172">
        <ele>0</ele>
        <time>2020-06-06T10:16:20Z</time>
      </trkpt>
      <trkpt lat="51.265866534417" lon="4.500681070103">
        <ele>0</ele>
        <time>2020-06-06T10:16:29Z</time>
      </trkpt>
      <trkpt lat="51.265931913237" lon="4.50053882926">
        <ele>0</ele>
        <time>2020-06-06T10:16:31Z</time>
      </trkpt>
      <trkpt lat="51.266218909493" lon="4.49975679799">
        <ele>0.2</ele>
        <time>2020-06-06T10:16:41Z</time>
      </trkpt>
      <trkpt lat="51.266350170047" lon="4.499473322132">
        <ele>0</ele>
        <time>2020-06-06T10:16:45Z</time>
      </trkpt>
      <trkpt lat="51.266760883147" lon="4.498798663001">
        <ele>0</ele>
        <time>2020-06-06T10:16:56Z</time>
      </trkpt>
      <trkpt lat="51.267217026145" lon="4.498205895033">
        <ele>0</ele>
        <time>2020-06-06T10:17:08Z</time>
      </trkpt>
      <trkpt lat="51.26768934621" lon="4.49768814507">
        <ele>0</ele>
        <time>2020-06-06T10:17:20Z</time>
      </trkpt>
      <trkpt lat="51.268199468644" lon="4.497360245142">
        <ele>0</ele>
        <time>2020-06-06T10:17:32Z</time>
      </trkpt>
      <trkpt lat="51.268740771746" lon="4.497101998803">
        <ele>0</ele>
        <time>2020-06-06T10:17:45Z</time>
      </trkpt>
      <trkpt lat="51.269266233057" lon="4.496825144646">
        <ele>1.8</ele>
        <time>2020-06-06T10:17:57Z</time>
      </trkpt>
      <trkpt lat="51.269800160087" lon="4.496667732564">
        <ele>7.4</ele>
        <time>2020-06-06T10:18:10Z</time>
      </trkpt>
      <trkpt lat="51.270358562265" lon="4.496477211977">
        <ele>12.2</ele>
        <time>2020-06-06T10:18:23Z</time>
      </trkpt>
      <trkpt lat="51.270894081856" lon="4.496335809324">
        <ele>10.4</ele>
        <time>2020-06-06T10:18:34Z</time>
      </trkpt>
      <trkpt lat="51.271005058212" lon="4.496309071063">
        <ele>9.6</ele>
        <time>2020-06-06T10:18:36Z</time>
      </trkpt>
      <trkpt lat="51.271122069536" lon="4.496246877365">
        <ele>9.2</ele>
        <time>2020-06-06T10:18:38Z</time>
      </trkpt>
      <trkpt lat="51.27166907233" lon="4.496075970424">
        <ele>6.2</ele>
        <time>2020-06-06T10:18:46Z</time>
      </trkpt>
      <trkpt lat="51.27223652696" lon="4.495916379048">
        <ele>1.6</ele>
        <time>2020-06-06T10:18:53Z</time>
      </trkpt>
      <trkpt lat="51.272776740415" lon="4.495768270875">
        <ele>0</ele>
        <time>2020-06-06T10:19:00Z</time>
      </trkpt>
      <trkpt lat="51.273348553633" lon="4.495622677272">
        <ele>0</ele>
        <time>2020-06-06T10:19:08Z</time>
      </trkpt>
      <trkpt lat="51.273927742923" lon="4.495453111435">
        <ele>0</ele>
        <time>2020-06-06T10:19:18Z</time>
      </trkpt>
      <trkpt lat="51.274483881988" lon="4.495265105418">
        <ele>0</ele>
        <time>2020-06-06T10:19:28Z</time>
      </trkpt>
      <trkpt lat="51.27502267052" lon="4.495186483196">
        <ele>0</ele>
        <time>2020-06-06T10:19:38Z</time>
      </trkpt>
      <trkpt lat="51.275565985278" lon="4.495088163509">
        <ele>0</ele>
        <time>2020-06-06T10:19:49Z</time>
      </trkpt>
      <trkpt lat="51.276121369972" lon="4.494990262917">
        <ele>0</ele>
        <time>2020-06-06T10:20:00Z</time>
      </trkpt>
      <trkpt lat="51.27669569776" lon="4.494906276279">
        <ele>0</ele>
        <time>2020-06-06T10:20:11Z</time>
      </trkpt>
      <trkpt lat="51.277289220099" lon="4.49483662269">
        <ele>0.2</ele>
        <time>2020-06-06T10:20:22Z</time>
      </trkpt>
      <trkpt lat="51.277834965608" lon="4.494740817573">
        <ele>0</ele>
        <time>2020-06-06T10:20:32Z</time>
      </trkpt>
      <trkpt lat="51.278111735946" lon="4.494676025486">
        <ele>0</ele>
        <time>2020-06-06T10:20:37Z</time>
      </trkpt>
      <trkpt lat="51.278271830236" lon="4.494626153181">
        <ele>0</ele>
        <time>2020-06-06T10:20:40Z</time>
      </trkpt>
      <trkpt lat="51.278378364185" lon="4.494602348585">
        <ele>0</ele>
        <time>2020-06-06T10:20:42Z</time>
      </trkpt>
      <trkpt lat="51.278480371908" lon="4.494590781563">
        <ele>0</ele>
        <time>2020-06-06T10:20:44Z</time>
      </trkpt>
      <trkpt lat="51.279056459895" lon="4.494515344463">
        <ele>0</ele>
        <time>2020-06-06T10:20:57Z</time>
      </trkpt>
      <trkpt lat="51.279137931963" lon="4.494500592319">
        <ele>0</ele>
        <time>2020-06-06T10:20:59Z</time>
      </trkpt>
      <trkpt lat="51.279226947741" lon="4.494486762184">
        <ele>0</ele>
        <time>2020-06-06T10:21:01Z</time>
      </trkpt>
      <trkpt lat="51.27945418105" lon="4.494504280355">
        <ele>0</ele>
        <time>2020-06-06T10:21:06Z</time>
      </trkpt>
      <trkpt lat="51.279657274487" lon="4.494443260123">
        <ele>0</ele>
        <time>2020-06-06T10:21:13Z</time>
      </trkpt>
      <trkpt lat="51.279742937505" lon="4.494394142189">
        <ele>0</ele>
        <time>2020-06-06T10:21:39Z</time>
      </trkpt>
      <trkpt lat="51.280060024782" lon="4.494073702152">
        <ele>0</ele>
        <time>2020-06-06T10:21:49Z</time>
      </trkpt>
      <trkpt lat="51.280554053968" lon="4.493606327408">
        <ele>0</ele>
        <time>2020-06-06T10:22:00Z</time>
      </trkpt>
      <trkpt lat="51.280835769627" lon="4.493284210991">
        <ele>0</ele>
        <time>2020-06-06T10:22:07Z</time>
      </trkpt>
      <trkpt lat="51.280919504808" lon="4.493232829944">
        <ele>0</ele>
        <time>2020-06-06T10:22:09Z</time>
      </trkpt>
      <trkpt lat="51.281453683295" lon="4.493105173607">
        <ele>0</ele>
        <time>2020-06-06T10:22:23Z</time>
      </trkpt>
      <trkpt lat="51.281897840176" lon="4.492601756693">
        <ele>0</ele>
        <time>2020-06-06T10:22:36Z</time>
      </trkpt>
      <trkpt lat="51.282349792224" lon="4.492911048803">
        <ele>0</ele>
        <time>2020-06-06T10:22:49Z</time>
      </trkpt>
      <trkpt lat="51.282725217525" lon="4.493585707934">
        <ele>0</ele>
        <time>2020-06-06T10:23:02Z</time>
      </trkpt>
      <trkpt lat="51.282932921007" lon="4.493765751146">
        <ele>0</ele>
        <time>2020-06-06T10:23:07Z</time>
      </trkpt>
      <trkpt lat="51.283261072392" lon="4.49437897095">
        <ele>0</ele>
        <time>2020-06-06T10:23:17Z</time>
      </trkpt>
      <trkpt lat="51.283647142706" lon="4.494980875189">
        <ele>0</ele>
        <time>2020-06-06T10:23:27Z</time>
      </trkpt>
      <trkpt lat="51.284042265472" lon="4.495605578196">
        <ele>0</ele>
        <time>2020-06-06T10:23:38Z</time>
      </trkpt>
      <trkpt lat="51.284433281107" lon="4.496222066941">
        <ele>0</ele>
        <time>2020-06-06T10:23:49Z</time>
      </trkpt>
      <trkpt lat="51.284880120196" lon="4.496784240974">
        <ele>0</ele>
        <time>2020-06-06T10:24:00Z</time>
      </trkpt>
      <trkpt lat="51.284971231449" lon="4.496820366963">
        <ele>0</ele>
        <time>2020-06-06T10:24:02Z</time>
      </trkpt>
      <trkpt lat="51.28515135848" lon="4.496838639505">
        <ele>0</ele>
        <time>2020-06-06T10:24:06Z</time>
      </trkpt>
      <trkpt lat="51.285734990177" lon="4.496828748863">
        <ele>0</ele>
        <time>2020-06-06T10:24:18Z</time>
      </trkpt>
      <trkpt lat="51.286300014056" lon="4.496814583452">
        <ele>0</ele>
        <time>2020-06-06T10:24:30Z</time>
      </trkpt>
      <trkpt lat="51.286772334121" lon="4.496768985916">
        <ele>0</ele>
        <time>2020-06-06T10:24:39Z</time>
      </trkpt>
      <trkpt lat="51.287185561791" lon="4.496689609323">
        <ele>0</ele>
        <time>2020-06-06T10:24:47Z</time>
      </trkpt>
      <trkpt lat="51.287747484367" lon="4.496608472531">
        <ele>0</ele>
        <time>2020-06-06T10:24:58Z</time>
      </trkpt>
      <trkpt lat="51.288228773065" lon="4.49657419056">
        <ele>0</ele>
        <time>2020-06-06T10:25:07Z</time>
      </trkpt>
      <trkpt lat="51.288382245654" lon="4.496549128679">
        <ele>0</ele>
        <time>2020-06-06T10:25:10Z</time>
      </trkpt>
      <trkpt lat="51.288953891234" lon="4.496528676843">
        <ele>0</ele>
        <time>2020-06-06T10:25:21Z</time>
      </trkpt>
      <trkpt lat="51.289526877918" lon="4.49652725192">
        <ele>0</ele>
        <time>2020-06-06T10:25:33Z</time>
      </trkpt>
      <trkpt lat="51.289648164011" lon="4.496520881676">
        <ele>0</ele>
        <time>2020-06-06T10:25:36Z</time>
      </trkpt>
      <trkpt lat="51.289732988839" lon="4.496513589423">
        <ele>0</ele>
        <time>2020-06-06T10:25:38Z</time>
      </trkpt>
      <trkpt lat="51.289792165053" lon="4.496640659027">
        <ele>0</ele>
        <time>2020-06-06T10:25:41Z</time>
      </trkpt>
      <trkpt lat="51.289735084314" lon="4.497539031069">
        <ele>0</ele>
        <time>2020-06-06T10:25:53Z</time>
      </trkpt>
      <trkpt lat="51.289768528095" lon="4.498419633483">
        <ele>0</ele>
        <time>2020-06-06T10:26:04Z</time>
      </trkpt>
      <trkpt lat="51.289792500329" lon="4.498746359945">
        <ele>0</ele>
        <time>2020-06-06T10:26:08Z</time>
      </trkpt>
      <trkpt lat="51.289993498291" lon="4.49960005646">
        <ele>0</ele>
        <time>2020-06-06T10:26:19Z</time>
      </trkpt>
      <trkpt lat="51.29020480599" lon="4.500465403816">
        <ele>0</ele>
        <time>2020-06-06T10:26:31Z</time>
      </trkpt>
      <trkpt lat="51.29052499457" lon="4.501184487017">
        <ele>0</ele>
        <time>2020-06-06T10:26:42Z</time>
      </trkpt>
      <trkpt lat="51.290637731125" lon="4.501459832432">
        <ele>0</ele>
        <time>2020-06-06T10:26:46Z</time>
      </trkpt>
      <trkpt lat="51.290734961165" lon="4.501737608598">
        <ele>0</ele>
        <time>2020-06-06T10:26:53Z</time>
      </trkpt>
      <trkpt lat="51.29102455581" lon="4.502173551217">
        <ele>3.6</ele>
        <time>2020-06-06T10:27:30Z</time>
      </trkpt>
      <trkpt lat="51.291310043324" lon="4.502972430106">
        <ele>2.8</ele>
        <time>2020-06-06T10:27:41Z</time>
      </trkpt>
      <trkpt lat="51.291620844176" lon="4.50376418438">
        <ele>1.4</ele>
        <time>2020-06-06T10:27:52Z</time>
      </trkpt>
      <trkpt lat="51.29171187161" lon="4.503965685256">
        <ele>3</ele>
        <time>2020-06-06T10:27:55Z</time>
      </trkpt>
      <trkpt lat="51.291936255073" lon="4.504266176371">
        <ele>1.2</ele>
        <time>2020-06-06T10:28:04Z</time>
      </trkpt>
      <trkpt lat="51.292382675067" lon="4.503720430862">
        <ele>0</ele>
        <time>2020-06-06T10:28:16Z</time>
      </trkpt>
      <trkpt lat="51.292812498899" lon="4.503196394474">
        <ele>0</ele>
        <time>2020-06-06T10:28:27Z</time>
      </trkpt>
      <trkpt lat="51.293269563906" lon="4.502604213239">
        <ele>0.4</ele>
        <time>2020-06-06T10:28:39Z</time>
      </trkpt>
      <trkpt lat="51.293732663881" lon="4.502037261523">
        <ele>0.4</ele>
        <time>2020-06-06T10:28:51Z</time>
      </trkpt>
      <trkpt lat="51.29416525374" lon="4.501500652285">
        <ele>0</ele>
        <time>2020-06-06T10:29:02Z</time>
      </trkpt>
      <trkpt lat="51.294614272123" lon="4.50093194037">
        <ele>0</ele>
        <time>2020-06-06T10:29:13Z</time>
      </trkpt>
      <trkpt lat="51.295060775936" lon="4.500363731369">
        <ele>1.4</ele>
        <time>2020-06-06T10:29:24Z</time>
      </trkpt>
      <trkpt lat="51.295487498465" lon="4.499789571219">
        <ele>4.2</ele>
        <time>2020-06-06T10:29:35Z</time>
      </trkpt>
      <trkpt lat="51.295950263164" lon="4.499212645042">
        <ele>3.4</ele>
        <time>2020-06-06T10:29:47Z</time>
      </trkpt>
      <trkpt lat="51.296393078941" lon="4.498664384963">
        <ele>3</ele>
        <time>2020-06-06T10:29:58Z</time>
      </trkpt>
      <trkpt lat="51.296716955557" lon="4.498313770086">
        <ele>2.4</ele>
        <time>2020-06-06T10:30:06Z</time>
      </trkpt>
      <trkpt lat="51.296855256907" lon="4.498232800932">
        <ele>2.2</ele>
        <time>2020-06-06T10:30:09Z</time>
      </trkpt>
      <trkpt lat="51.296954163327" lon="4.498227520335">
        <ele>2.4</ele>
        <time>2020-06-06T10:30:11Z</time>
      </trkpt>
      <trkpt lat="51.29705533286" lon="4.498284768712">
        <ele>3.2</ele>
        <time>2020-06-06T10:30:13Z</time>
      </trkpt>
      <trkpt lat="51.297551457521" lon="4.498662373307">
        <ele>6.6</ele>
        <time>2020-06-06T10:30:23Z</time>
      </trkpt>
      <trkpt lat="51.297875837051" lon="4.498905280769">
        <ele>6.4</ele>
        <time>2020-06-06T10:30:29Z</time>
      </trkpt>
      <trkpt lat="51.298375146834" lon="4.499374834807">
        <ele>9.8</ele>
        <time>2020-06-06T10:30:40Z</time>
      </trkpt>
      <trkpt lat="51.298870768581" lon="4.49971572668">
        <ele>17.8</ele>
        <time>2020-06-06T10:30:51Z</time>
      </trkpt>
      <trkpt lat="51.299333365642" lon="4.500250743357">
        <ele>7.8</ele>
        <time>2020-06-06T10:31:03Z</time>
      </trkpt>
      <trkpt lat="51.299829155027" lon="4.500743766715">
        <ele>6.2</ele>
        <time>2020-06-06T10:31:15Z</time>
      </trkpt>
      <trkpt lat="51.300331733751" lon="4.501149785951">
        <ele>3</ele>
        <time>2020-06-06T10:31:25Z</time>
      </trkpt>
      <trkpt lat="51.300843029651" lon="4.501588746054">
        <ele>1.6</ele>
        <time>2020-06-06T10:31:36Z</time>
      </trkpt>
      <trkpt lat="51.301322641969" lon="4.501989233236">
        <ele>1.4</ele>
        <time>2020-06-06T10:31:47Z</time>
      </trkpt>
      <trkpt lat="51.30182882491" lon="4.502401790354">
        <ele>0.2</ele>
        <time>2020-06-06T10:31:58Z</time>
      </trkpt>
      <trkpt lat="51.302330984539" lon="4.502830943634">
        <ele>1.2</ele>
        <time>2020-06-06T10:32:09Z</time>
      </trkpt>
      <trkpt lat="51.302839430593" lon="4.503258588172">
        <ele>1.4</ele>
        <time>2020-06-06T10:32:20Z</time>
      </trkpt>
      <trkpt lat="51.3033635508" lon="4.503679275733">
        <ele>3</ele>
        <time>2020-06-06T10:32:31Z</time>
      </trkpt>
      <trkpt lat="51.303854562502" lon="4.504083115675">
        <ele>3.4</ele>
        <time>2020-06-06T10:32:42Z</time>
      </trkpt>
      <trkpt lat="51.303970567998" lon="4.504128713211">
        <ele>3.8</ele>
        <time>2020-06-06T10:32:46Z</time>
      </trkpt>
      <trkpt lat="51.304173912892" lon="4.503752198263">
        <ele>5</ele>
        <time>2020-06-06T10:33:15Z</time>
      </trkpt>
      <trkpt lat="51.304599713412" lon="4.503210559885">
        <ele>6.2</ele>
        <time>2020-06-06T10:33:25Z</time>
      </trkpt>
      <trkpt lat="51.305063651577" lon="4.502638159934">
        <ele>8.2</ele>
        <time>2020-06-06T10:33:35Z</time>
      </trkpt>
      <trkpt lat="51.305497498721" lon="4.50205343859">
        <ele>7.8</ele>
        <time>2020-06-06T10:33:46Z</time>
      </trkpt>
      <trkpt lat="51.305933944254" lon="4.501518254275">
        <ele>8</ele>
        <time>2020-06-06T10:33:57Z</time>
      </trkpt>
      <trkpt lat="51.306373658728" lon="4.500990110756">
        <ele>6.4</ele>
        <time>2020-06-06T10:34:08Z</time>
      </trkpt>
      <trkpt lat="51.306456220443" lon="4.501052472092">
        <ele>6.4</ele>
        <time>2020-06-06T10:34:10Z</time>
      </trkpt>
      <trkpt lat="51.306500393056" lon="4.50117333909">
        <ele>6.6</ele>
        <time>2020-06-06T10:34:12Z</time>
      </trkpt>
      <trkpt lat="51.306703318855" lon="4.50160668332">
        <ele>9.2</ele>
        <time>2020-06-06T10:34:18Z</time>
      </trkpt>
      <trkpt lat="51.307089724445" lon="4.502240522598">
        <ele>9.2</ele>
        <time>2020-06-06T10:34:29Z</time>
      </trkpt>
      <trkpt lat="51.307471184714" lon="4.502877211722">
        <ele>6</ele>
        <time>2020-06-06T10:34:39Z</time>
      </trkpt>
      <trkpt lat="51.307842754341" lon="4.50351356557">
        <ele>2.2</ele>
        <time>2020-06-06T10:34:50Z</time>
      </trkpt>
      <trkpt lat="51.308228824655" lon="4.504192080375">
        <ele>3.4</ele>
        <time>2020-06-06T10:35:02Z</time>
      </trkpt>
      <trkpt lat="51.30844884953" lon="4.504906553531">
        <ele>3</ele>
        <time>2020-06-06T10:35:12Z</time>
      </trkpt>
      <trkpt lat="51.308408867867" lon="4.505829065445">
        <ele>0.4</ele>
        <time>2020-06-06T10:35:23Z</time>
      </trkpt>
      <trkpt lat="51.308311805465" lon="4.50672886241">
        <ele>1.2</ele>
        <time>2020-06-06T10:35:35Z</time>
      </trkpt>
      <trkpt lat="51.308340555382" lon="4.506896248953">
        <ele>2.2</ele>
        <time>2020-06-06T10:35:39Z</time>
      </trkpt>
      <trkpt lat="51.308399480139" lon="4.50720998347">
        <ele>5.8</ele>
        <time>2020-06-06T10:35:55Z</time>
      </trkpt>
      <trkpt lat="51.308462595846" lon="4.507298496334">
        <ele>6.2</ele>
        <time>2020-06-06T10:35:57Z</time>
      </trkpt>
      <trkpt lat="51.308546163389" lon="4.507363791335">
        <ele>6.6</ele>
        <time>2020-06-06T10:35:59Z</time>
      </trkpt>
      <trkpt lat="51.308695696485" lon="4.507396648383">
        <ele>6</ele>
        <time>2020-06-06T10:36:02Z</time>
      </trkpt>
      <trkpt lat="51.30927362849" lon="4.507348117182">
        <ele>4.4</ele>
        <time>2020-06-06T10:36:12Z</time>
      </trkpt>
      <trkpt lat="51.309839658197" lon="4.507321881835">
        <ele>2.4</ele>
        <time>2020-06-06T10:36:22Z</time>
      </trkpt>
      <trkpt lat="51.310275516997" lon="4.507305201854">
        <ele>3.2</ele>
        <time>2020-06-06T10:36:30Z</time>
      </trkpt>
      <trkpt lat="51.31038255386" lon="4.50730302256">
        <ele>3.6</ele>
        <time>2020-06-06T10:36:32Z</time>
      </trkpt>
      <trkpt lat="51.310935591622" lon="4.5072745241">
        <ele>2.8</ele>
        <time>2020-06-06T10:36:43Z</time>
      </trkpt>
      <trkpt lat="51.31149650837" lon="4.507239068663">
        <ele>3.8</ele>
        <time>2020-06-06T10:36:54Z</time>
      </trkpt>
      <trkpt lat="51.311940497613" lon="4.507184753951">
        <ele>4</ele>
        <time>2020-06-06T10:37:03Z</time>
      </trkpt>
      <trkpt lat="51.312034458712" lon="4.507138485863">
        <ele>3.4</ele>
        <time>2020-06-06T10:37:05Z</time>
      </trkpt>
      <trkpt lat="51.312589843406" lon="4.507107808109">
        <ele>3.2</ele>
        <time>2020-06-06T10:37:16Z</time>
      </trkpt>
      <trkpt lat="51.313151346887" lon="4.507106550824">
        <ele>3.2</ele>
        <time>2020-06-06T10:37:27Z</time>
      </trkpt>
      <trkpt lat="51.313706480124" lon="4.507074112871">
        <ele>4.8</ele>
        <time>2020-06-06T10:37:38Z</time>
      </trkpt>
      <trkpt lat="51.314273096564" lon="4.507024408204">
        <ele>5</ele>
        <time>2020-06-06T10:37:49Z</time>
      </trkpt>
      <trkpt lat="51.314726138259" lon="4.507018624693">
        <ele>4.6</ele>
        <time>2020-06-06T10:37:58Z</time>
      </trkpt>
      <trkpt lat="51.314819009711" lon="4.507020720168">
        <ele>4.4</ele>
        <time>2020-06-06T10:38:00Z</time>
      </trkpt>
      <trkpt lat="51.315580840602" lon="4.506990461509">
        <ele>5.6</ele>
        <time>2020-06-06T10:38:14Z</time>
      </trkpt>
      <trkpt lat="51.315906142141" lon="4.506958107375">
        <ele>7.6</ele>
        <time>2020-06-06T10:38:20Z</time>
      </trkpt>
      <trkpt lat="51.316006222027" lon="4.506930111829">
        <ele>7.2</ele>
        <time>2020-06-06T10:38:22Z</time>
      </trkpt>
      <trkpt lat="51.316156593313" lon="4.506946624172">
        <ele>7.6</ele>
        <time>2020-06-06T10:38:25Z</time>
      </trkpt>
      <trkpt lat="51.316740644105" lon="4.506921227015">
        <ele>7.6</ele>
        <time>2020-06-06T10:38:37Z</time>
      </trkpt>
      <trkpt lat="51.317304997432" lon="4.506909240898">
        <ele>4.6</ele>
        <time>2020-06-06T10:38:49Z</time>
      </trkpt>
      <trkpt lat="51.317894999373" lon="4.506880155705">
        <ele>3.6</ele>
        <time>2020-06-06T10:39:01Z</time>
      </trkpt>
      <trkpt lat="51.318450551705" lon="4.506860961154">
        <ele>2.6</ele>
        <time>2020-06-06T10:39:12Z</time>
      </trkpt>
      <trkpt lat="51.319007109865" lon="4.506830786314">
        <ele>4</ele>
        <time>2020-06-06T10:39:23Z</time>
      </trkpt>
      <trkpt lat="51.319559477075" lon="4.506798767456">
        <ele>5.4</ele>
        <time>2020-06-06T10:39:34Z</time>
      </trkpt>
      <trkpt lat="51.320099271435" lon="4.506779908181">
        <ele>3.6</ele>
        <time>2020-06-06T10:39:45Z</time>
      </trkpt>
      <trkpt lat="51.320684328055" lon="4.506741099984">
        <ele>5.2</ele>
        <time>2020-06-06T10:39:56Z</time>
      </trkpt>
      <trkpt lat="51.32126645101" lon="4.506763731114">
        <ele>6.2</ele>
        <time>2020-06-06T10:40:07Z</time>
      </trkpt>
      <trkpt lat="51.321809179035" lon="4.506779572905">
        <ele>5.4</ele>
        <time>2020-06-06T10:40:18Z</time>
      </trkpt>
      <trkpt lat="51.322054517248" lon="4.506762892924">
        <ele>4</ele>
        <time>2020-06-06T10:40:23Z</time>
      </trkpt>
      <trkpt lat="51.32259330578" lon="4.506739675061">
        <ele>3.4</ele>
        <time>2020-06-06T10:40:34Z</time>
      </trkpt>
      <trkpt lat="51.323171153966" lon="4.506729030048">
        <ele>4.6</ele>
        <time>2020-06-06T10:40:45Z</time>
      </trkpt>
      <trkpt lat="51.323379108905" lon="4.506712266248">
        <ele>5</ele>
        <time>2020-06-06T10:40:49Z</time>
      </trkpt>
      <trkpt lat="51.323945725345" lon="4.506679912114">
        <ele>10</ele>
        <time>2020-06-06T10:41:00Z</time>
      </trkpt>
      <trkpt lat="51.324280666069" lon="4.506664237961">
        <ele>11.6</ele>
        <time>2020-06-06T10:41:07Z</time>
      </trkpt>
      <trkpt lat="51.3248715062" lon="4.506651246016">
        <ele>12.2</ele>
        <time>2020-06-06T10:41:18Z</time>
      </trkpt>
      <trkpt lat="51.325427645265" lon="4.506668093635">
        <ele>11.6</ele>
        <time>2020-06-06T10:41:29Z</time>
      </trkpt>
      <trkpt lat="51.325975905344" lon="4.506688880747">
        <ele>7</ele>
        <time>2020-06-06T10:41:41Z</time>
      </trkpt>
      <trkpt lat="51.326548305295" lon="4.506678151915">
        <ele>1.8</ele>
        <time>2020-06-06T10:41:53Z</time>
      </trkpt>
      <trkpt lat="51.327109641138" lon="4.506661974848">
        <ele>0</ele>
        <time>2020-06-06T10:42:04Z</time>
      </trkpt>
      <trkpt lat="51.327665444927" lon="4.50667689463">
        <ele>0</ele>
        <time>2020-06-06T10:42:15Z</time>
      </trkpt>
      <trkpt lat="51.328253938126" lon="4.506665327608">
        <ele>0</ele>
        <time>2020-06-06T10:42:27Z</time>
      </trkpt>
      <trkpt lat="51.328448230568" lon="4.50661067762">
        <ele>1.6</ele>
        <time>2020-06-06T10:42:31Z</time>
      </trkpt>
      <trkpt lat="51.328988444023" lon="4.506292416877">
        <ele>7.8</ele>
        <time>2020-06-06T10:42:42Z</time>
      </trkpt>
      <trkpt lat="51.329508792375" lon="4.505984801147">
        <ele>12.8</ele>
        <time>2020-06-06T10:42:53Z</time>
      </trkpt>
      <trkpt lat="51.330032661125" lon="4.505687159878">
        <ele>13</ele>
        <time>2020-06-06T10:43:04Z</time>
      </trkpt>
      <trkpt lat="51.33026442066" lon="4.505554222944">
        <ele>13.6</ele>
        <time>2020-06-06T10:43:09Z</time>
      </trkpt>
      <trkpt lat="51.330809579436" lon="4.505247277766">
        <ele>9.4</ele>
        <time>2020-06-06T10:43:21Z</time>
      </trkpt>
      <trkpt lat="51.331359348257" lon="4.504930525765">
        <ele>9</ele>
        <time>2020-06-06T10:43:33Z</time>
      </trkpt>
      <trkpt lat="51.331886821224" lon="4.504613941402">
        <ele>10.6</ele>
        <time>2020-06-06T10:43:44Z</time>
      </trkpt>
      <trkpt lat="51.332404235911" lon="4.504337087245">
        <ele>11.4</ele>
        <time>2020-06-06T10:43:55Z</time>
      </trkpt>
      <trkpt lat="51.332917878743" lon="4.504071297196">
        <ele>9</ele>
        <time>2020-06-06T10:44:06Z</time>
      </trkpt>
      <trkpt lat="51.333447195728" lon="4.503777427782">
        <ele>4.4</ele>
        <time>2020-06-06T10:44:18Z</time>
      </trkpt>
      <trkpt lat="51.333975171609" lon="4.503477188124">
        <ele>4</ele>
        <time>2020-06-06T10:44:29Z</time>
      </trkpt>
      <trkpt lat="51.334260407666" lon="4.503320698051">
        <ele>4.8</ele>
        <time>2020-06-06T10:44:35Z</time>
      </trkpt>
      <trkpt lat="51.334412371513" lon="4.50327551961">
        <ele>5.2</ele>
        <time>2020-06-06T10:44:38Z</time>
      </trkpt>
      <trkpt lat="51.334929953838" lon="4.503011741217">
        <ele>6.8</ele>
        <time>2020-06-06T10:44:49Z</time>
      </trkpt>
      <trkpt lat="51.335458264995" lon="4.502672190448">
        <ele>11.6</ele>
        <time>2020-06-06T10:45:00Z</time>
      </trkpt>
      <trkpt lat="51.335601511666" lon="4.502562471377">
        <ele>12.6</ele>
        <time>2020-06-06T10:45:03Z</time>
      </trkpt>
      <trkpt lat="51.336101911096" lon="4.502285533401">
        <ele>13.2</ele>
        <time>2020-06-06T10:45:14Z</time>
      </trkpt>
      <trkpt lat="51.336192184159" lon="4.502254017457">
        <ele>13.6</ele>
        <time>2020-06-06T10:45:16Z</time>
      </trkpt>
      <trkpt lat="51.336735750374" lon="4.501929470289">
        <ele>14.6</ele>
        <time>2020-06-06T10:45:28Z</time>
      </trkpt>
      <trkpt lat="51.337268168662" lon="4.501620764912">
        <ele>14.2</ele>
        <time>2020-06-06T10:45:39Z</time>
      </trkpt>
      <trkpt lat="51.337795976905" lon="4.501311975716">
        <ele>13.8</ele>
        <time>2020-06-06T10:45:50Z</time>
      </trkpt>
      <trkpt lat="51.338215239543" lon="4.501052472092">
        <ele>13.8</ele>
        <time>2020-06-06T10:45:59Z</time>
      </trkpt>
      <trkpt lat="51.338339124025" lon="4.500927497963">
        <ele>13.2</ele>
        <time>2020-06-06T10:46:02Z</time>
      </trkpt>
      <trkpt lat="51.338578930184" lon="4.500785843853">
        <ele>12.6</ele>
        <time>2020-06-06T10:46:07Z</time>
      </trkpt>
      <trkpt lat="51.339107408979" lon="4.500518461243">
        <ele>11.4</ele>
        <time>2020-06-06T10:46:18Z</time>
      </trkpt>
      <trkpt lat="51.339272951504" lon="4.50041310076">
        <ele>11</ele>
        <time>2020-06-06T10:46:22Z</time>
      </trkpt>
      <trkpt lat="51.339811823855" lon="4.500115878586">
        <ele>10.8</ele>
        <time>2020-06-06T10:46:34Z</time>
      </trkpt>
      <trkpt lat="51.340330412008" lon="4.499809184865">
        <ele>8.4</ele>
        <time>2020-06-06T10:46:46Z</time>
      </trkpt>
      <trkpt lat="51.340843384288" lon="4.499504754257">
        <ele>10.8</ele>
        <time>2020-06-06T10:46:57Z</time>
      </trkpt>
      <trkpt lat="51.341360966613" lon="4.499203089676">
        <ele>11.8</ele>
        <time>2020-06-06T10:47:08Z</time>
      </trkpt>
      <trkpt lat="51.341797579784" lon="4.498957583825">
        <ele>11.6</ele>
        <time>2020-06-06T10:47:17Z</time>
      </trkpt>
      <trkpt lat="51.342324633656" lon="4.498642340566">
        <ele>12</ele>
        <time>2020-06-06T10:47:28Z</time>
      </trkpt>
      <trkpt lat="51.342859817971" lon="4.498310501145">
        <ele>15.4</ele>
        <time>2020-06-06T10:47:39Z</time>
      </trkpt>
      <trkpt lat="51.343033826215" lon="4.498187203396">
        <ele>17</ele>
        <time>2020-06-06T10:47:43Z</time>
      </trkpt>
      <trkpt lat="51.343544451563" lon="4.497902134977">
        <ele>14.8</ele>
        <time>2020-06-06T10:47:54Z</time>
      </trkpt>
      <trkpt lat="51.344058178214" lon="4.497600889491">
        <ele>12.8</ele>
        <time>2020-06-06T10:48:05Z</time>
      </trkpt>
      <trkpt lat="51.344578023652" lon="4.497329483569">
        <ele>11.2</ele>
        <time>2020-06-06T10:48:18Z</time>
      </trkpt>
      <trkpt lat="51.345095438339" lon="4.497013737396">
        <ele>14</ele>
        <time>2020-06-06T10:48:29Z</time>
      </trkpt>
      <trkpt lat="51.345639758925" lon="4.496706959856">
        <ele>14.8</ele>
        <time>2020-06-06T10:48:41Z</time>
      </trkpt>
      <trkpt lat="51.34615566487" lon="4.496401607239">
        <ele>13.4</ele>
        <time>2020-06-06T10:48:52Z</time>
      </trkpt>
      <trkpt lat="51.346667379865" lon="4.496126680919">
        <ele>14.6</ele>
        <time>2020-06-06T10:49:03Z</time>
      </trkpt>
      <trkpt lat="51.347200552524" lon="4.495811186203">
        <ele>13.8</ele>
        <time>2020-06-06T10:49:14Z</time>
      </trkpt>
      <trkpt lat="51.347746884766" lon="4.495494182745">
        <ele>14.6</ele>
        <time>2020-06-06T10:49:26Z</time>
      </trkpt>
      <trkpt lat="51.348279722149" lon="4.495195200372">
        <ele>16</ele>
        <time>2020-06-06T10:49:37Z</time>
      </trkpt>
      <trkpt lat="51.348788252022" lon="4.494892865239">
        <ele>17.8</ele>
        <time>2020-06-06T10:49:48Z</time>
      </trkpt>
      <trkpt lat="51.349307510727" lon="4.494585081871">
        <ele>16.2</ele>
        <time>2020-06-06T10:49:59Z</time>
      </trkpt>
      <trkpt lat="51.349397364695" lon="4.494547866235">
        <ele>15.6</ele>
        <time>2020-06-06T10:50:01Z</time>
      </trkpt>
      <trkpt lat="51.349920227617" lon="4.494252488079">
        <ele>13.8</ele>
        <time>2020-06-06T10:50:13Z</time>
      </trkpt>
      <trkpt lat="51.350467398049" lon="4.493958786303">
        <ele>14.4</ele>
        <time>2020-06-06T10:50:25Z</time>
      </trkpt>
      <trkpt lat="51.350983555451" lon="4.493643123949">
        <ele>16.4</ele>
        <time>2020-06-06T10:50:36Z</time>
      </trkpt>
      <trkpt lat="51.3515343301" lon="4.493330227622">
        <ele>17.4</ele>
        <time>2020-06-06T10:50:48Z</time>
      </trkpt>
      <trkpt lat="51.351591662296" lon="4.493237775265">
        <ele>16.4</ele>
        <time>2020-06-06T10:50:50Z</time>
      </trkpt>
      <trkpt lat="51.351602558766" lon="4.493115231887">
        <ele>15.4</ele>
        <time>2020-06-06T10:50:52Z</time>
      </trkpt>
      <trkpt lat="51.351570875184" lon="4.492968548637">
        <ele>14.6</ele>
        <time>2020-06-06T10:50:54Z</time>
      </trkpt>
      <trkpt lat="51.351314808139" lon="4.492145781333">
        <ele>12</ele>
        <time>2020-06-06T10:51:05Z</time>
      </trkpt>
      <trkpt lat="51.351063099682" lon="4.491367857194">
        <ele>11.4</ele>
        <time>2020-06-06T10:51:16Z</time>
      </trkpt>
      <trkpt lat="51.350910297645" lon="4.490822614599">
        <ele>11.8</ele>
        <time>2020-06-06T10:51:24Z</time>
      </trkpt>
      <trkpt lat="51.350912728396" lon="4.49069177314">
        <ele>11.2</ele>
        <time>2020-06-06T10:51:26Z</time>
      </trkpt>
      <trkpt lat="51.351133842918" lon="4.490204952388">
        <ele>15.8</ele>
        <time>2020-06-06T10:51:35Z</time>
      </trkpt>
      <trkpt lat="51.351190756019" lon="4.490116355705">
        <ele>17</ele>
        <time>2020-06-06T10:51:37Z</time>
      </trkpt>
      <trkpt lat="51.351475572981" lon="4.489883841799">
        <ele>18</ele>
        <time>2020-06-06T10:51:45Z</time>
      </trkpt>
      <trkpt lat="51.352171605957" lon="4.489300713016">
        <ele>21.4</ele>
        <time>2020-06-06T10:52:06Z</time>
      </trkpt>
      <trkpt lat="51.352700587666" lon="4.488943392619">
        <ele>15.4</ele>
        <time>2020-06-06T10:52:18Z</time>
      </trkpt>
      <trkpt lat="51.353219259638" lon="4.488587161869">
        <ele>16.6</ele>
        <time>2020-06-06T10:52:29Z</time>
      </trkpt>
      <trkpt lat="51.35375301903" lon="4.488199163718">
        <ele>20.8</ele>
        <time>2020-06-06T10:52:39Z</time>
      </trkpt>
      <trkpt lat="51.354294322132" lon="4.487814015413">
        <ele>17.8</ele>
        <time>2020-06-06T10:52:50Z</time>
      </trkpt>
      <trkpt lat="51.354537397232" lon="4.48760974851">
        <ele>15.6</ele>
        <time>2020-06-06T10:52:55Z</time>
      </trkpt>
      <trkpt lat="51.354599674749" lon="4.48748150544">
        <ele>12.6</ele>
        <time>2020-06-06T10:52:57Z</time>
      </trkpt>
      <trkpt lat="51.354617360558" lon="4.487300372581">
        <ele>11.2</ele>
        <time>2020-06-06T10:52:59Z</time>
      </trkpt>
      <trkpt lat="51.354585174062" lon="4.487116557514">
        <ele>8.2</ele>
        <time>2020-06-06T10:53:01Z</time>
      </trkpt>
      <trkpt lat="51.354509150229" lon="4.486669802244">
        <ele>5</ele>
        <time>2020-06-06T10:53:06Z</time>
      </trkpt>
      <trkpt lat="51.354529518246" lon="4.486491267774">
        <ele>8</ele>
        <time>2020-06-06T10:53:08Z</time>
      </trkpt>
      <trkpt lat="51.354611577047" lon="4.486378195943">
        <ele>7.8</ele>
        <time>2020-06-06T10:53:10Z</time>
      </trkpt>
      <trkpt lat="51.354713165675" lon="4.48632564143">
        <ele>8.4</ele>
        <time>2020-06-06T10:53:12Z</time>
      </trkpt>
      <trkpt lat="51.355249858732" lon="4.486002519185">
        <ele>16</ele>
        <time>2020-06-06T10:53:22Z</time>
      </trkpt>
      <trkpt lat="51.355901886733" lon="4.485553500802">
        <ele>16.6</ele>
        <time>2020-06-06T10:53:34Z</time>
      </trkpt>
      <trkpt lat="51.356408237312" lon="4.485164496823">
        <ele>18.6</ele>
        <time>2020-06-06T10:53:44Z</time>
      </trkpt>
      <trkpt lat="51.356762037311" lon="4.484873728712">
        <ele>19.2</ele>
        <time>2020-06-06T10:53:52Z</time>
      </trkpt>
      <trkpt lat="51.357291438115" lon="4.484483383629">
        <ele>19.8</ele>
        <time>2020-06-06T10:54:03Z</time>
      </trkpt>
      <trkpt lat="51.357821174195" lon="4.48411030526">
        <ele>17.6</ele>
        <time>2020-06-06T10:54:15Z</time>
      </trkpt>
      <trkpt lat="51.358315957752" lon="4.483740076737">
        <ele>17.6</ele>
        <time>2020-06-06T10:54:26Z</time>
      </trkpt>
      <trkpt lat="51.358656346711" lon="4.483473029403">
        <ele>16.4</ele>
        <time>2020-06-06T10:54:35Z</time>
      </trkpt>
      <trkpt lat="51.358734466019" lon="4.483480740751">
        <ele>17.2</ele>
        <time>2020-06-06T10:54:37Z</time>
      </trkpt>
      <trkpt lat="51.358787020532" lon="4.483596075695">
        <ele>16.4</ele>
        <time>2020-06-06T10:54:39Z</time>
      </trkpt>
      <trkpt lat="51.358810154576" lon="4.483753990691">
        <ele>15.2</ele>
        <time>2020-06-06T10:54:41Z</time>
      </trkpt>
      <trkpt lat="51.358875030482" lon="4.484141402109">
        <ele>13.8</ele>
        <time>2020-06-06T10:54:46Z</time>
      </trkpt>
      <trkpt lat="51.35907971648" lon="4.484225891661">
        <ele>12.8</ele>
        <time>2020-06-06T10:54:52Z</time>
      </trkpt>
      <trkpt lat="51.359585312688" lon="4.483855327862">
        <ele>15</ele>
        <time>2020-06-06T10:55:02Z</time>
      </trkpt>
      <trkpt lat="51.360096357131" lon="4.48345400249">
        <ele>15.4</ele>
        <time>2020-06-06T10:55:13Z</time>
      </trkpt>
      <trkpt lat="51.360568928653" lon="4.483090814763">
        <ele>19</ele>
        <time>2020-06-06T10:55:24Z</time>
      </trkpt>
      <trkpt lat="51.361096569258" lon="4.482700218223">
        <ele>23.4</ele>
        <time>2020-06-06T10:55:35Z</time>
      </trkpt>
      <trkpt lat="51.361517256819" lon="4.482386567525">
        <ele>21.4</ele>
        <time>2020-06-06T10:55:44Z</time>
      </trkpt>
      <trkpt lat="51.361637704722" lon="4.482287912562">
        <ele>20.8</ele>
        <time>2020-06-06T10:55:47Z</time>
      </trkpt>
      <trkpt lat="51.362154113581" lon="4.481906619931">
        <ele>21</ele>
        <time>2020-06-06T10:55:59Z</time>
      </trkpt>
      <trkpt lat="51.36267974253" lon="4.481497499392">
        <ele>19</ele>
        <time>2020-06-06T10:56:12Z</time>
      </trkpt>
      <trkpt lat="51.363194894104" lon="4.481114781838">
        <ele>16.8</ele>
        <time>2020-06-06T10:56:25Z</time>
      </trkpt>
      <trkpt lat="51.363503096567" lon="4.480895595153">
        <ele>15</ele>
        <time>2020-06-06T10:56:32Z</time>
      </trkpt>
      <trkpt lat="51.363723037623" lon="4.480697279399">
        <ele>15</ele>
        <time>2020-06-06T10:56:39Z</time>
      </trkpt>
      <trkpt lat="51.363736448663" lon="4.480668445663">
        <ele>24.6</ele>
        <time>2020-06-06T11:01:03Z</time>
      </trkpt>
      <trkpt lat="51.364272722625" lon="4.480314897121">
        <ele>26</ele>
        <time>2020-06-06T11:01:18Z</time>
      </trkpt>
      <trkpt lat="51.364776139539" lon="4.479937543983">
        <ele>22.2</ele>
        <time>2020-06-06T11:01:29Z</time>
      </trkpt>
      <trkpt lat="51.365296152615" lon="4.479578295749">
        <ele>23.6</ele>
        <time>2020-06-06T11:01:40Z</time>
      </trkpt>
      <trkpt lat="51.365800407719" lon="4.479196164928">
        <ele>21.4</ele>
        <time>2020-06-06T11:01:52Z</time>
      </trkpt>
      <trkpt lat="51.366324779383" lon="4.478847980802">
        <ele>18.2</ele>
        <time>2020-06-06T11:02:04Z</time>
      </trkpt>
      <trkpt lat="51.366403150148" lon="4.478885950809">
        <ele>16.4</ele>
        <time>2020-06-06T11:02:06Z</time>
      </trkpt>
      <trkpt lat="51.366451681349" lon="4.478984521953">
        <ele>14.4</ele>
        <time>2020-06-06T11:02:08Z</time>
      </trkpt>
      <trkpt lat="51.366472719918" lon="4.479123577674">
        <ele>11.6</ele>
        <time>2020-06-06T11:02:10Z</time>
      </trkpt>
      <trkpt lat="51.366545642448" lon="4.479996804016">
        <ele>0</ele>
        <time>2020-06-06T11:02:23Z</time>
      </trkpt>
      <trkpt lat="51.366551928873" lon="4.480069726546">
        <ele>0</ele>
        <time>2020-06-06T11:02:25Z</time>
      </trkpt>
      <trkpt lat="51.366578248039" lon="4.480398632302">
        <ele>16.4</ele>
        <time>2020-06-06T11:03:21Z</time>
      </trkpt>
      <trkpt lat="51.366706994023" lon="4.481287532797">
        <ele>0</ele>
        <time>2020-06-06T11:03:34Z</time>
      </trkpt>
      <trkpt lat="51.366896257325" lon="4.482135781077">
        <ele>0</ele>
        <time>2020-06-06T11:03:45Z</time>
      </trkpt>
      <trkpt lat="51.367105134273" lon="4.482989561411">
        <ele>0</ele>
        <time>2020-06-06T11:03:55Z</time>
      </trkpt>
      <trkpt lat="51.367258187767" lon="4.48387058292">
        <ele>0</ele>
        <time>2020-06-06T11:04:06Z</time>
      </trkpt>
      <trkpt lat="51.367380647326" lon="4.484764512555">
        <ele>0</ele>
        <time>2020-06-06T11:04:17Z</time>
      </trkpt>
      <trkpt lat="51.36742892707" lon="4.484934665125">
        <ele>0</ele>
        <time>2020-06-06T11:04:19Z</time>
      </trkpt>
      <trkpt lat="51.367673343274" lon="4.485778051903">
        <ele>0</ele>
        <time>2020-06-06T11:04:29Z</time>
      </trkpt>
      <trkpt lat="51.367855398142" lon="4.486641471422">
        <ele>0</ele>
        <time>2020-06-06T11:04:39Z</time>
      </trkpt>
      <trkpt lat="51.368006020885" lon="4.487542525672">
        <ele>0</ele>
        <time>2020-06-06T11:04:50Z</time>
      </trkpt>
      <trkpt lat="51.368124960046" lon="4.488458499704">
        <ele>0</ele>
        <time>2020-06-06T11:05:02Z</time>
      </trkpt>
      <trkpt lat="51.368163600605" lon="4.488705598116">
        <ele>0</ele>
        <time>2020-06-06T11:05:05Z</time>
      </trkpt>
      <trkpt lat="51.368387397335" lon="4.489505818109">
        <ele>0</ele>
        <time>2020-06-06T11:05:15Z</time>
      </trkpt>
      <trkpt lat="51.368598369758" lon="4.490360017538">
        <ele>0</ele>
        <time>2020-06-06T11:05:25Z</time>
      </trkpt>
      <trkpt lat="51.368825435429" lon="4.491193346036">
        <ele>2.2</ele>
        <time>2020-06-06T11:05:35Z</time>
      </trkpt>
      <trkpt lat="51.368856532278" lon="4.491275740113">
        <ele>3</ele>
        <time>2020-06-06T11:05:36Z</time>
      </trkpt>
      <trkpt lat="51.369002880252" lon="4.491841099268">
        <ele>4.2</ele>
        <time>2020-06-06T11:05:43Z</time>
      </trkpt>
      <trkpt lat="51.369110587667" lon="4.49261625738">
        <ele>12.2</ele>
        <time>2020-06-06T11:05:53Z</time>
      </trkpt>
      <trkpt lat="51.369102624862" lon="4.492765874295">
        <ele>13</ele>
        <time>2020-06-06T11:05:55Z</time>
      </trkpt>
      <trkpt lat="51.369071695651" lon="4.492907696043">
        <ele>13.8</ele>
        <time>2020-06-06T11:05:57Z</time>
      </trkpt>
      <trkpt lat="51.368825686886" lon="4.493703976543">
        <ele>17.2</ele>
        <time>2020-06-06T11:06:08Z</time>
      </trkpt>
      <trkpt lat="51.368489991791" lon="4.49445524624">
        <ele>13.2</ele>
        <time>2020-06-06T11:06:19Z</time>
      </trkpt>
      <trkpt lat="51.36812294839" lon="4.495168629749">
        <ele>16.2</ele>
        <time>2020-06-06T11:06:30Z</time>
      </trkpt>
      <trkpt lat="51.36778264325" lon="4.495838762654">
        <ele>18.6</ele>
        <time>2020-06-06T11:06:41Z</time>
      </trkpt>
      <trkpt lat="51.367399003687" lon="4.496559270778">
        <ele>13.8</ele>
        <time>2020-06-06T11:06:52Z</time>
      </trkpt>
      <trkpt lat="51.367039420177" lon="4.497220183593">
        <ele>9.6</ele>
        <time>2020-06-06T11:07:02Z</time>
      </trkpt>
      <trkpt lat="51.366633736217" lon="4.497860560753">
        <ele>7.8</ele>
        <time>2020-06-06T11:07:12Z</time>
      </trkpt>
      <trkpt lat="51.366252862681" lon="4.498566903466">
        <ele>4.2</ele>
        <time>2020-06-06T11:07:24Z</time>
      </trkpt>
      <trkpt lat="51.365913060455" lon="4.499270396333">
        <ele>7</ele>
        <time>2020-06-06T11:07:34Z</time>
      </trkpt>
      <trkpt lat="51.365777106037" lon="4.499482458403">
        <ele>6.2</ele>
        <time>2020-06-06T11:07:37Z</time>
      </trkpt>
      <trkpt lat="51.365388102058" lon="4.500120404812">
        <ele>5.8</ele>
        <time>2020-06-06T11:07:47Z</time>
      </trkpt>
      <trkpt lat="51.36501074892" lon="4.500749885502">
        <ele>11.4</ele>
        <time>2020-06-06T11:07:57Z</time>
      </trkpt>
      <trkpt lat="51.364670862875" lon="4.50143736894">
        <ele>19.4</ele>
        <time>2020-06-06T11:08:08Z</time>
      </trkpt>
      <trkpt lat="51.364277584127" lon="4.502116973392">
        <ele>14.4</ele>
        <time>2020-06-06T11:08:19Z</time>
      </trkpt>
      <trkpt lat="51.363919090264" lon="4.502805127382">
        <ele>16.4</ele>
        <time>2020-06-06T11:08:30Z</time>
      </trkpt>
      <trkpt lat="51.363553471786" lon="4.503466207835">
        <ele>18</ele>
        <time>2020-06-06T11:08:42Z</time>
      </trkpt>
      <trkpt lat="51.363178800856" lon="4.504132317428">
        <ele>18.4</ele>
        <time>2020-06-06T11:08:55Z</time>
      </trkpt>
      <trkpt lat="51.362810248713" lon="4.504779400108">
        <ele>15.6</ele>
        <time>2020-06-06T11:09:07Z</time>
      </trkpt>
      <trkpt lat="51.362724585695" lon="4.504943936805">
        <ele>15.6</ele>
        <time>2020-06-06T11:09:10Z</time>
      </trkpt>
      <trkpt lat="51.362376569207" lon="4.505567466346">
        <ele>19.4</ele>
        <time>2020-06-06T11:09:21Z</time>
      </trkpt>
      <trkpt lat="51.362213038338" lon="4.505810792903">
        <ele>20.2</ele>
        <time>2020-06-06T11:09:25Z</time>
      </trkpt>
      <trkpt lat="51.3621290517" lon="4.505897461749">
        <ele>20</ele>
        <time>2020-06-06T11:09:27Z</time>
      </trkpt>
      <trkpt lat="51.362059230473" lon="4.506016652367">
        <ele>19.2</ele>
        <time>2020-06-06T11:09:29Z</time>
      </trkpt>
      <trkpt lat="51.36200080863" lon="4.506140285392">
        <ele>19</ele>
        <time>2020-06-06T11:09:31Z</time>
      </trkpt>
      <trkpt lat="51.361914139784" lon="4.506184541824">
        <ele>18.8</ele>
        <time>2020-06-06T11:09:33Z</time>
      </trkpt>
      <trkpt lat="51.361320701264" lon="4.506192839905">
        <ele>18.4</ele>
        <time>2020-06-06T11:09:44Z</time>
      </trkpt>
      <trkpt lat="51.360766490036" lon="4.50634832415">
        <ele>19.2</ele>
        <time>2020-06-06T11:09:54Z</time>
      </trkpt>
      <trkpt lat="51.360230802807" lon="4.506526188068">
        <ele>18.6</ele>
        <time>2020-06-06T11:10:05Z</time>
      </trkpt>
      <trkpt lat="51.359656307381" lon="4.506676643173">
        <ele>17.4</ele>
        <time>2020-06-06T11:10:18Z</time>
      </trkpt>
      <trkpt lat="51.359468049907" lon="4.506732298989">
        <ele>18.8</ele>
        <time>2020-06-06T11:10:22Z</time>
      </trkpt>
      <trkpt lat="51.359060605748" lon="4.506830786314">
        <ele>20.2</ele>
        <time>2020-06-06T11:10:31Z</time>
      </trkpt>
      <trkpt lat="51.35852232013" lon="4.50696020285">
        <ele>22.2</ele>
        <time>2020-06-06T11:10:43Z</time>
      </trkpt>
      <trkpt lat="51.357985710892" lon="4.507080818391">
        <ele>22.6</ele>
        <time>2020-06-06T11:10:53Z</time>
      </trkpt>
      <trkpt lat="51.357380956807" lon="4.507089535567">
        <ele>21.8</ele>
        <time>2020-06-06T11:11:04Z</time>
      </trkpt>
      <trkpt lat="51.356806293743" lon="4.507101354046">
        <ele>19.4</ele>
        <time>2020-06-06T11:11:17Z</time>
      </trkpt>
      <trkpt lat="51.356560033521" lon="4.507082662409">
        <ele>19</ele>
        <time>2020-06-06T11:11:23Z</time>
      </trkpt>
      <trkpt lat="51.356002134257" lon="4.507082830047">
        <ele>17</ele>
        <time>2020-06-06T11:11:34Z</time>
      </trkpt>
      <trkpt lat="51.355730393059" lon="4.507076459803">
        <ele>17.4</ele>
        <time>2020-06-06T11:11:40Z</time>
      </trkpt>
      <trkpt lat="51.355156065271" lon="4.507103700978">
        <ele>20.8</ele>
        <time>2020-06-06T11:11:52Z</time>
      </trkpt>
      <trkpt lat="51.354582910949" lon="4.507292545185">
        <ele>21</ele>
        <time>2020-06-06T11:12:03Z</time>
      </trkpt>
      <trkpt lat="51.354041272571" lon="4.507605692969">
        <ele>20.2</ele>
        <time>2020-06-06T11:12:14Z</time>
      </trkpt>
      <trkpt lat="51.353494688872" lon="4.507927725567">
        <ele>21.4</ele>
        <time>2020-06-06T11:12:25Z</time>
      </trkpt>
      <trkpt lat="51.352958498729" lon="4.508231988537">
        <ele>25.6</ele>
        <time>2020-06-06T11:12:36Z</time>
      </trkpt>
      <trkpt lat="51.352446616096" lon="4.508545555416">
        <ele>22.2</ele>
        <time>2020-06-06T11:12:45Z</time>
      </trkpt>
      <trkpt lat="51.351915538912" lon="4.508867420376">
        <ele>22.2</ele>
        <time>2020-06-06T11:12:55Z</time>
      </trkpt>
      <trkpt lat="51.351384629366" lon="4.50920822843">
        <ele>20.8</ele>
        <time>2020-06-06T11:13:05Z</time>
      </trkpt>
      <trkpt lat="51.350854222734" lon="4.509510982658">
        <ele>20.6</ele>
        <time>2020-06-06T11:13:16Z</time>
      </trkpt>
      <trkpt lat="51.35032817469" lon="4.509805354986">
        <ele>24.8</ele>
        <time>2020-06-06T11:13:27Z</time>
      </trkpt>
      <trkpt lat="51.34926954072" lon="4.510443552852">
        <ele>26.6</ele>
        <time>2020-06-06T11:13:47Z</time>
      </trkpt>
      <trkpt lat="51.348732931482" lon="4.510780840508">
        <ele>25.6</ele>
        <time>2020-06-06T11:13:58Z</time>
      </trkpt>
      <trkpt lat="51.348206967257" lon="4.511068004402">
        <ele>25.8</ele>
        <time>2020-06-06T11:14:10Z</time>
      </trkpt>
      <trkpt lat="51.347675135702" lon="4.511380313996">
        <ele>19.2</ele>
        <time>2020-06-06T11:14:21Z</time>
      </trkpt>
      <trkpt lat="51.347148584744" lon="4.511702346594">
        <ele>19.2</ele>
        <time>2020-06-06T11:14:32Z</time>
      </trkpt>
      <trkpt lat="51.346626392374" lon="4.511984062253">
        <ele>18</ele>
        <time>2020-06-06T11:14:43Z</time>
      </trkpt>
      <trkpt lat="51.3460777132" lon="4.512272567251">
        <ele>14.4</ele>
        <time>2020-06-06T11:14:54Z</time>
      </trkpt>
      <trkpt lat="51.345563986549" lon="4.512602981749">
        <ele>14.4</ele>
        <time>2020-06-06T11:15:04Z</time>
      </trkpt>
      <trkpt lat="51.345033412279" lon="4.512896012973">
        <ele>15.6</ele>
        <time>2020-06-06T11:15:15Z</time>
      </trkpt>
      <trkpt lat="51.344504598208" lon="4.513223409987">
        <ele>17</ele>
        <time>2020-06-06T11:15:26Z</time>
      </trkpt>
      <trkpt lat="51.343982657295" lon="4.513548292431">
        <ele>21.6</ele>
        <time>2020-06-06T11:15:38Z</time>
      </trkpt>
      <trkpt lat="51.343472534861" lon="4.5138375518">
        <ele>18.4</ele>
        <time>2020-06-06T11:15:48Z</time>
      </trkpt>
      <trkpt lat="51.342960736047" lon="4.51415103486">
        <ele>18</ele>
        <time>2020-06-06T11:15:58Z</time>
      </trkpt>
      <trkpt lat="51.342446338844" lon="4.514446999749">
        <ele>17.2</ele>
        <time>2020-06-06T11:16:09Z</time>
      </trkpt>
      <trkpt lat="51.341936551686" lon="4.514763332655">
        <ele>21</ele>
        <time>2020-06-06T11:16:21Z</time>
      </trkpt>
      <trkpt lat="51.341427518899" lon="4.51506466196">
        <ele>22.8</ele>
        <time>2020-06-06T11:16:32Z</time>
      </trkpt>
      <trkpt lat="51.34092787384" lon="4.515299019884">
        <ele>24.8</ele>
        <time>2020-06-06T11:16:42Z</time>
      </trkpt>
      <trkpt lat="51.340416913216" lon="4.515600181551">
        <ele>19.2</ele>
        <time>2020-06-06T11:16:52Z</time>
      </trkpt>
      <trkpt lat="51.339911400827" lon="4.515914335163">
        <ele>18.6</ele>
        <time>2020-06-06T11:17:02Z</time>
      </trkpt>
      <trkpt lat="51.339482163728" lon="4.516075267643">
        <ele>21.6</ele>
        <time>2020-06-06T11:17:11Z</time>
      </trkpt>
      <trkpt lat="51.338968520896" lon="4.51644096994">
        <ele>24.2</ele>
        <time>2020-06-06T11:17:22Z</time>
      </trkpt>
      <trkpt lat="51.338433085124" lon="4.516783035279">
        <ele>24</ele>
        <time>2020-06-06T11:17:33Z</time>
      </trkpt>
      <trkpt lat="51.337892033479" lon="4.517121077306">
        <ele>21</ele>
        <time>2020-06-06T11:17:43Z</time>
      </trkpt>
      <trkpt lat="51.337351987662" lon="4.517493568942">
        <ele>19</ele>
        <time>2020-06-06T11:17:54Z</time>
      </trkpt>
      <trkpt lat="51.336803727583" lon="4.517821971784">
        <ele>17</ele>
        <time>2020-06-06T11:18:06Z</time>
      </trkpt>
      <trkpt lat="51.336248845803" lon="4.518153811205">
        <ele>17.2</ele>
        <time>2020-06-06T11:18:17Z</time>
      </trkpt>
      <trkpt lat="51.335709638176" lon="4.518477604002">
        <ele>21.4</ele>
        <time>2020-06-06T11:18:29Z</time>
      </trkpt>
      <trkpt lat="51.335152577102" lon="4.518790500329">
        <ele>22.2</ele>
        <time>2020-06-06T11:18:40Z</time>
      </trkpt>
      <trkpt lat="51.334642706125" lon="4.51907540111">
        <ele>21</ele>
        <time>2020-06-06T11:18:49Z</time>
      </trkpt>
      <trkpt lat="51.334125207619" lon="4.519386034324">
        <ele>19.8</ele>
        <time>2020-06-06T11:18:58Z</time>
      </trkpt>
      <trkpt lat="51.333605362181" lon="4.51970320542">
        <ele>16.4</ele>
        <time>2020-06-06T11:19:08Z</time>
      </trkpt>
      <trkpt lat="51.333057185921" lon="4.520031021529">
        <ele>21.4</ele>
        <time>2020-06-06T11:19:20Z</time>
      </trkpt>
      <trkpt lat="51.332542118166" lon="4.520328830436">
        <ele>21.8</ele>
        <time>2020-06-06T11:19:31Z</time>
      </trkpt>
      <trkpt lat="51.332004754557" lon="4.520656981821">
        <ele>21.4</ele>
        <time>2020-06-06T11:19:42Z</time>
      </trkpt>
      <trkpt lat="51.331459428143" lon="4.520946073552">
        <ele>24</ele>
        <time>2020-06-06T11:19:54Z</time>
      </trkpt>
      <trkpt lat="51.330947461691" lon="4.521260981535">
        <ele>26.8</ele>
        <time>2020-06-06T11:20:04Z</time>
      </trkpt>
      <trkpt lat="51.330415378679" lon="4.521582175943">
        <ele>26.6</ele>
        <time>2020-06-06T11:20:14Z</time>
      </trkpt>
      <trkpt lat="51.329900059467" lon="4.52189507227">
        <ele>28.6</ele>
        <time>2020-06-06T11:20:25Z</time>
      </trkpt>
      <trkpt lat="51.329378370011" lon="4.52217335135">
        <ele>28</ele>
        <time>2020-06-06T11:20:36Z</time>
      </trkpt>
      <trkpt lat="51.329134037626" lon="4.522246609156">
        <ele>26.8</ele>
        <time>2020-06-06T11:20:41Z</time>
      </trkpt>
      <trkpt lat="51.328786943147" lon="4.522017364191">
        <ele>21.6</ele>
        <time>2020-06-06T11:20:49Z</time>
      </trkpt>
      <trkpt lat="51.328400369919" lon="4.521381177981">
        <ele>15</ele>
        <time>2020-06-06T11:21:00Z</time>
      </trkpt>
      <trkpt lat="51.327999715099" lon="4.520727389781">
        <ele>13.8</ele>
        <time>2020-06-06T11:21:12Z</time>
      </trkpt>
      <trkpt lat="51.327609118559" lon="4.520045522216">
        <ele>14.2</ele>
        <time>2020-06-06T11:21:24Z</time>
      </trkpt>
      <trkpt lat="51.327246266108" lon="4.519366923592">
        <ele>12.4</ele>
        <time>2020-06-06T11:21:35Z</time>
      </trkpt>
      <trkpt lat="51.326865308753" lon="4.518694527574">
        <ele>11.2</ele>
        <time>2020-06-06T11:21:46Z</time>
      </trkpt>
      <trkpt lat="51.326516705532" lon="4.51803269275">
        <ele>10</ele>
        <time>2020-06-06T11:21:56Z</time>
      </trkpt>
      <trkpt lat="51.326157541117" lon="4.517322662001">
        <ele>12.2</ele>
        <time>2020-06-06T11:22:08Z</time>
      </trkpt>
      <trkpt lat="51.32613633491" lon="4.517264407796">
        <ele>11.6</ele>
        <time>2020-06-06T11:22:09Z</time>
      </trkpt>
      <trkpt lat="51.325882530978" lon="4.516490171693">
        <ele>7</ele>
        <time>2020-06-06T11:22:23Z</time>
      </trkpt>
      <trkpt lat="51.325474500086" lon="4.515822804815">
        <ele>9.4</ele>
        <time>2020-06-06T11:22:34Z</time>
      </trkpt>
      <trkpt lat="51.325030427024" lon="4.515235401263">
        <ele>12.2</ele>
        <time>2020-06-06T11:22:45Z</time>
      </trkpt>
      <trkpt lat="51.324603369219" lon="4.514676831447">
        <ele>12.4</ele>
        <time>2020-06-06T11:22:55Z</time>
      </trkpt>
      <trkpt lat="51.324210258109" lon="4.514101330193">
        <ele>14</ele>
        <time>2020-06-06T11:23:06Z</time>
      </trkpt>
      <trkpt lat="51.323740452614" lon="4.51355759634">
        <ele>4.4</ele>
        <time>2020-06-06T11:23:17Z</time>
      </trkpt>
      <trkpt lat="51.323704578082" lon="4.513431448745">
        <ele>4.8</ele>
        <time>2020-06-06T11:23:19Z</time>
      </trkpt>
      <trkpt lat="51.323992328709" lon="4.51302115474">
        <ele>6.6</ele>
        <time>2020-06-06T11:23:29Z</time>
      </trkpt>
      <trkpt lat="51.324090648396" lon="4.512875142042">
        <ele>7.4</ele>
        <time>2020-06-06T11:23:32Z</time>
      </trkpt>
      <trkpt lat="51.324268931409" lon="4.512637347539">
        <ele>10.8</ele>
        <time>2020-06-06T11:23:37Z</time>
      </trkpt>
      <trkpt lat="51.32431662442" lon="4.512521509681">
        <ele>11.4</ele>
        <time>2020-06-06T11:23:39Z</time>
      </trkpt>
      <trkpt lat="51.324301369362" lon="4.512336018234">
        <ele>13.2</ele>
        <time>2020-06-06T11:23:42Z</time>
      </trkpt>
      <trkpt lat="51.323907084786" lon="4.511722295516">
        <ele>18.6</ele>
        <time>2020-06-06T11:23:54Z</time>
      </trkpt>
      <trkpt lat="51.323506513785" lon="4.511146542805">
        <ele>18.2</ele>
        <time>2020-06-06T11:24:06Z</time>
      </trkpt>
      <trkpt lat="51.323063027456" lon="4.510585458419">
        <ele>18.6</ele>
        <time>2020-06-06T11:24:19Z</time>
      </trkpt>
      <trkpt lat="51.322636724022" lon="4.509986320207">
        <ele>17.4</ele>
        <time>2020-06-06T11:24:31Z</time>
      </trkpt>
      <trkpt lat="51.322211677873" lon="4.509353486757">
        <ele>21.2</ele>
        <time>2020-06-06T11:24:44Z</time>
      </trkpt>
      <trkpt lat="51.321792079959" lon="4.508804723764">
        <ele>18.6</ele>
        <time>2020-06-06T11:24:54Z</time>
      </trkpt>
      <trkpt lat="51.321380863945" lon="4.508202316611">
        <ele>20.6</ele>
        <time>2020-06-06T11:25:05Z</time>
      </trkpt>
      <trkpt lat="51.321214650868" lon="4.507991595645">
        <ele>21.4</ele>
        <time>2020-06-06T11:25:09Z</time>
      </trkpt>
      <trkpt lat="51.320835705169" lon="4.507364042792">
        <ele>14</ele>
        <time>2020-06-06T11:25:20Z</time>
      </trkpt>
      <trkpt lat="51.320806033243" lon="4.506938242272">
        <ele>9.6</ele>
        <time>2020-06-06T11:25:29Z</time>
      </trkpt>
      <trkpt lat="51.320631689723" lon="4.506740848527">
        <ele>17.6</ele>
        <time>2020-06-06T11:26:54Z</time>
      </trkpt>
      <trkpt lat="51.320082759092" lon="4.506783763855">
        <ele>12.8</ele>
        <time>2020-06-06T11:27:09Z</time>
      </trkpt>
      <trkpt lat="51.319529888968" lon="4.506836653644">
        <ele>13.4</ele>
        <time>2020-06-06T11:27:20Z</time>
      </trkpt>
      <trkpt lat="51.3194735626" lon="4.506829193753">
        <ele>14.4</ele>
        <time>2020-06-06T11:27:21Z</time>
      </trkpt>
      <trkpt lat="51.318929158195" lon="4.506857021661">
        <ele>15</ele>
        <time>2020-06-06T11:27:31Z</time>
      </trkpt>
      <trkpt lat="51.318357261158" lon="4.506850148503">
        <ele>15</ele>
        <time>2020-06-06T11:27:44Z</time>
      </trkpt>
      <trkpt lat="51.317791734365" lon="4.506861044973">
        <ele>16.4</ele>
        <time>2020-06-06T11:27:56Z</time>
      </trkpt>
      <trkpt lat="51.317423014584" lon="4.506887028863">
        <ele>16.6</ele>
        <time>2020-06-06T11:28:04Z</time>
      </trkpt>
      <trkpt lat="51.316863941854" lon="4.506870851796">
        <ele>15.4</ele>
        <time>2020-06-06T11:28:14Z</time>
      </trkpt>
      <trkpt lat="51.316320543277" lon="4.506910582002">
        <ele>15.8</ele>
        <time>2020-06-06T11:28:24Z</time>
      </trkpt>
      <trkpt lat="51.315772869931" lon="4.506938829005">
        <ele>14.4</ele>
        <time>2020-06-06T11:28:34Z</time>
      </trkpt>
      <trkpt lat="51.315349583981" lon="4.506947378543">
        <ele>16.2</ele>
        <time>2020-06-06T11:28:42Z</time>
      </trkpt>
      <trkpt lat="51.31523818853" lon="4.506935224788">
        <ele>16.2</ele>
        <time>2020-06-06T11:28:44Z</time>
      </trkpt>
      <trkpt lat="51.314931578628" lon="4.506958107375">
        <ele>14.2</ele>
        <time>2020-06-06T11:28:50Z</time>
      </trkpt>
      <trkpt lat="51.314380971617" lon="4.506932626399">
        <ele>13.2</ele>
        <time>2020-06-06T11:29:01Z</time>
      </trkpt>
      <trkpt lat="51.313799603033" lon="4.506987444025">
        <ele>14.8</ele>
        <time>2020-06-06T11:29:13Z</time>
      </trkpt>
      <trkpt lat="51.313249834212" lon="4.507024156747">
        <ele>15</ele>
        <time>2020-06-06T11:29:25Z</time>
      </trkpt>
      <trkpt lat="51.313148245584" lon="4.507027341869">
        <ele>14.6</ele>
        <time>2020-06-06T11:29:27Z</time>
      </trkpt>
      <trkpt lat="51.313054116847" lon="4.507015858666">
        <ele>14.4</ele>
        <time>2020-06-06T11:29:29Z</time>
      </trkpt>
      <trkpt lat="51.312965771621" lon="4.507042177832">
        <ele>14</ele>
        <time>2020-06-06T11:29:31Z</time>
      </trkpt>
      <trkpt lat="51.312873738359" lon="4.507074029052">
        <ele>13.8</ele>
        <time>2020-06-06T11:29:33Z</time>
      </trkpt>
      <trkpt lat="51.312733006258" lon="4.507027006593">
        <ele>13.6</ele>
        <time>2020-06-06T11:29:36Z</time>
      </trkpt>
      <trkpt lat="51.312183153618" lon="4.50706330022">
        <ele>12.8</ele>
        <time>2020-06-06T11:29:47Z</time>
      </trkpt>
      <trkpt lat="51.31162307506" lon="4.507089703205">
        <ele>12</ele>
        <time>2020-06-06T11:29:58Z</time>
      </trkpt>
      <trkpt lat="51.310984709556" lon="4.507114010715">
        <ele>10</ele>
        <time>2020-06-06T11:30:11Z</time>
      </trkpt>
      <trkpt lat="51.310428905767" lon="4.507142425356">
        <ele>7.8</ele>
        <time>2020-06-06T11:30:23Z</time>
      </trkpt>
      <trkpt lat="51.310107543721" lon="4.507147622134">
        <ele>7</ele>
        <time>2020-06-06T11:30:30Z</time>
      </trkpt>
      <trkpt lat="51.309559116004" lon="4.507167990151">
        <ele>7</ele>
        <time>2020-06-06T11:30:42Z</time>
      </trkpt>
      <trkpt lat="51.308997277247" lon="4.507193890222">
        <ele>7.2</ele>
        <time>2020-06-06T11:30:54Z</time>
      </trkpt>
      <trkpt lat="51.308907423279" lon="4.507211827488">
        <ele>7.2</ele>
        <time>2020-06-06T11:30:56Z</time>
      </trkpt>
      <trkpt lat="51.30842454202" lon="4.506992221708">
        <ele>12</ele>
        <time>2020-06-06T11:31:11Z</time>
      </trkpt>
      <trkpt lat="51.307998238586" lon="4.50718567596">
        <ele>7.8</ele>
        <time>2020-06-06T11:31:24Z</time>
      </trkpt>
      <trkpt lat="51.307902182012" lon="4.507225573804">
        <ele>8.2</ele>
        <time>2020-06-06T11:31:26Z</time>
      </trkpt>
      <trkpt lat="51.307808304732" lon="4.507178048431">
        <ele>8.2</ele>
        <time>2020-06-06T11:31:28Z</time>
      </trkpt>
      <trkpt lat="51.307340427074" lon="4.506691898231">
        <ele>10.4</ele>
        <time>2020-06-06T11:31:40Z</time>
      </trkpt>
      <trkpt lat="51.306831394287" lon="4.506255117422">
        <ele>9</ele>
        <time>2020-06-06T11:31:52Z</time>
      </trkpt>
      <trkpt lat="51.306319260197" lon="4.50584289558">
        <ele>7</ele>
        <time>2020-06-06T11:32:04Z</time>
      </trkpt>
      <trkpt lat="51.305947439113" lon="4.505508373951">
        <ele>7.6</ele>
        <time>2020-06-06T11:32:13Z</time>
      </trkpt>
      <trkpt lat="51.305907373631" lon="4.505382645451">
        <ele>7.8</ele>
        <time>2020-06-06T11:32:15Z</time>
      </trkpt>
      <trkpt lat="51.305932016417" lon="4.505280637728">
        <ele>7.4</ele>
        <time>2020-06-06T11:32:17Z</time>
      </trkpt>
      <trkpt lat="51.306013153209" lon="4.505238728228">
        <ele>6.2</ele>
        <time>2020-06-06T11:32:21Z</time>
      </trkpt>
      <trkpt lat="51.305955653375" lon="4.505402426735">
        <ele>0</ele>
        <time>2020-06-06T11:39:53Z</time>
      </trkpt>
      <trkpt lat="51.305800504406" lon="4.505405192762">
        <ele>0</ele>
        <time>2020-06-06T11:39:59Z</time>
      </trkpt>
      <trkpt lat="51.305321814097" lon="4.505002777743">
        <ele>8.8</ele>
        <time>2020-06-06T11:40:13Z</time>
      </trkpt>
      <trkpt lat="51.304792580931" lon="4.504572534816">
        <ele>11</ele>
        <time>2020-06-06T11:40:24Z</time>
      </trkpt>
      <trkpt lat="51.304316405192" lon="4.504147572486">
        <ele>7.6</ele>
        <time>2020-06-06T11:40:34Z</time>
      </trkpt>
      <trkpt lat="51.304093195195" lon="4.503925871231">
        <ele>7.2</ele>
        <time>2020-06-06T11:40:39Z</time>
      </trkpt>
      <trkpt lat="51.303998563544" lon="4.503837190729">
        <ele>6.6</ele>
        <time>2020-06-06T11:40:41Z</time>
      </trkpt>
      <trkpt lat="51.303504031444" lon="4.503432512597">
        <ele>5.6</ele>
        <time>2020-06-06T11:40:52Z</time>
      </trkpt>
      <trkpt lat="51.30301821652" lon="4.503036467822">
        <ele>5</ele>
        <time>2020-06-06T11:41:03Z</time>
      </trkpt>
      <trkpt lat="51.302510189561" lon="4.502624916532">
        <ele>4</ele>
        <time>2020-06-06T11:41:14Z</time>
      </trkpt>
      <trkpt lat="51.302017333841" lon="4.502196182347">
        <ele>5.2</ele>
        <time>2020-06-06T11:41:27Z</time>
      </trkpt>
      <trkpt lat="51.301506876131" lon="4.50180030521">
        <ele>7.4</ele>
        <time>2020-06-06T11:41:39Z</time>
      </trkpt>
      <trkpt lat="51.300998010982" lon="4.501376516346">
        <ele>8.8</ele>
        <time>2020-06-06T11:41:51Z</time>
      </trkpt>
      <trkpt lat="51.300500461398" lon="4.500939400261">
        <ele>7.2</ele>
        <time>2020-06-06T11:42:03Z</time>
      </trkpt>
      <trkpt lat="51.300011209895" lon="4.500533464844">
        <ele>6.6</ele>
        <time>2020-06-06T11:42:14Z</time>
      </trkpt>
      <trkpt lat="51.299526903713" lon="4.500118812251">
        <ele>3</ele>
        <time>2020-06-06T11:42:25Z</time>
      </trkpt>
      <trkpt lat="51.299023570618" lon="4.499699465794">
        <ele>3.4</ele>
        <time>2020-06-06T11:42:36Z</time>
      </trkpt>
      <trkpt lat="51.298515878935" lon="4.49930668996">
        <ele>1.8</ele>
        <time>2020-06-06T11:42:46Z</time>
      </trkpt>
      <trkpt lat="51.298002990474" lon="4.498879464517">
        <ele>1.2</ele>
        <time>2020-06-06T11:42:56Z</time>
      </trkpt>
      <trkpt lat="51.297502758682" lon="4.498488951796">
        <ele>2</ele>
        <time>2020-06-06T11:43:06Z</time>
      </trkpt>
      <trkpt lat="51.297180558446" lon="4.498236740425">
        <ele>1.8</ele>
        <time>2020-06-06T11:43:13Z</time>
      </trkpt>
      <trkpt lat="51.296699772662" lon="4.497783614911">
        <ele>5.4</ele>
        <time>2020-06-06T11:43:25Z</time>
      </trkpt>
      <trkpt lat="51.296554430516" lon="4.49762947177">
        <ele>6.6</ele>
        <time>2020-06-06T11:43:29Z</time>
      </trkpt>
      <trkpt lat="51.296721481783" lon="4.496934947536">
        <ele>7.4</ele>
        <time>2020-06-06T11:43:41Z</time>
      </trkpt>
      <trkpt lat="51.296660629189" lon="4.496802681154">
        <ele>7.4</ele>
        <time>2020-06-06T11:43:44Z</time>
      </trkpt>
      <trkpt lat="51.296193589721" lon="4.496295995299">
        <ele>4.8</ele>
        <time>2020-06-06T11:43:55Z</time>
      </trkpt>
      <trkpt lat="51.29598496423" lon="4.495980835859">
        <ele>4.6</ele>
        <time>2020-06-06T11:44:01Z</time>
      </trkpt>
      <trkpt lat="51.295961243453" lon="4.495836834817">
        <ele>5.2</ele>
        <time>2020-06-06T11:44:03Z</time>
      </trkpt>
      <trkpt lat="51.295907515474" lon="4.495649918447">
        <ele>5.8</ele>
        <time>2020-06-06T11:44:06Z</time>
      </trkpt>
      <trkpt lat="51.295531671078" lon="4.494939636241">
        <ele>6.8</ele>
        <time>2020-06-06T11:44:18Z</time>
      </trkpt>
      <trkpt lat="51.295181559115" lon="4.494375115276">
        <ele>8.2</ele>
        <time>2020-06-06T11:44:28Z</time>
      </trkpt>
      <trkpt lat="51.29502858944" lon="4.494283333471">
        <ele>7</ele>
        <time>2020-06-06T11:44:31Z</time>
      </trkpt>
      <trkpt lat="51.294463565561" lon="4.494245447283">
        <ele>0.6</ele>
        <time>2020-06-06T11:44:42Z</time>
      </trkpt>
      <trkpt lat="51.293896446207" lon="4.494428927074">
        <ele>0</ele>
        <time>2020-06-06T11:44:54Z</time>
      </trkpt>
      <trkpt lat="51.293432424223" lon="4.494543172371">
        <ele>0</ele>
        <time>2020-06-06T11:45:04Z</time>
      </trkpt>
      <trkpt lat="51.293353969639" lon="4.494448121625">
        <ele>0.8</ele>
        <time>2020-06-06T11:45:06Z</time>
      </trkpt>
      <trkpt lat="51.2933220346" lon="4.494296409235">
        <ele>3</ele>
        <time>2020-06-06T11:45:08Z</time>
      </trkpt>
      <trkpt lat="51.293201419059" lon="4.493404575075">
        <ele>5.8</ele>
        <time>2020-06-06T11:45:19Z</time>
      </trkpt>
      <trkpt lat="51.293147523442" lon="4.493273314521">
        <ele>5.8</ele>
        <time>2020-06-06T11:45:21Z</time>
      </trkpt>
      <trkpt lat="51.292977873786" lon="4.49297584089">
        <ele>5.6</ele>
        <time>2020-06-06T11:45:26Z</time>
      </trkpt>
      <trkpt lat="51.29288533761" lon="4.492695550154">
        <ele>5.2</ele>
        <time>2020-06-06T11:45:30Z</time>
      </trkpt>
      <trkpt lat="51.292800428963" lon="4.491808996591">
        <ele>0.8</ele>
        <time>2020-06-06T11:45:42Z</time>
      </trkpt>
      <trkpt lat="51.292694397928" lon="4.490940967027">
        <ele>0</ele>
        <time>2020-06-06T11:45:54Z</time>
      </trkpt>
      <trkpt lat="51.292519719132" lon="4.490352390009">
        <ele>0</ele>
        <time>2020-06-06T11:46:05Z</time>
      </trkpt>
      <trkpt lat="51.291977158745" lon="4.490549448478">
        <ele>3.6</ele>
        <time>2020-06-06T11:46:17Z</time>
      </trkpt>
      <trkpt lat="51.291443483172" lon="4.490760839996">
        <ele>9.6</ele>
        <time>2020-06-06T11:46:28Z</time>
      </trkpt>
      <trkpt lat="51.290911483979" lon="4.490970136039">
        <ele>10.6</ele>
        <time>2020-06-06T11:46:40Z</time>
      </trkpt>
      <trkpt lat="51.290424747046" lon="4.491341789485">
        <ele>9</ele>
        <time>2020-06-06T11:46:51Z</time>
      </trkpt>
      <trkpt lat="51.289974639016" lon="4.491810002419">
        <ele>12.2</ele>
        <time>2020-06-06T11:47:05Z</time>
      </trkpt>
      <trkpt lat="51.289867266877" lon="4.491817965224">
        <ele>13.6</ele>
        <time>2020-06-06T11:47:09Z</time>
      </trkpt>
      <trkpt lat="51.289812365432" lon="4.49176717091">
        <ele>14.4</ele>
        <time>2020-06-06T11:47:12Z</time>
      </trkpt>
      <trkpt lat="51.289753524494" lon="4.491869346271">
        <ele>11.8</ele>
        <time>2020-06-06T11:47:15Z</time>
      </trkpt>
      <trkpt lat="51.28969351009" lon="4.492070092776">
        <ele>10.8</ele>
        <time>2020-06-06T11:47:18Z</time>
      </trkpt>
      <trkpt lat="51.289616648067" lon="4.492144691686">
        <ele>9.4</ele>
        <time>2020-06-06T11:47:20Z</time>
      </trkpt>
      <trkpt lat="51.289522770787" lon="4.492126419144">
        <ele>8.4</ele>
        <time>2020-06-06T11:47:22Z</time>
      </trkpt>
      <trkpt lat="51.289212640487" lon="4.491881080931">
        <ele>5</ele>
        <time>2020-06-06T11:47:29Z</time>
      </trkpt>
      <trkpt lat="51.288720120043" lon="4.49141848387">
        <ele>0.2</ele>
        <time>2020-06-06T11:47:41Z</time>
      </trkpt>
      <trkpt lat="51.288512165104" lon="4.491123273352">
        <ele>0.8</ele>
        <time>2020-06-06T11:47:47Z</time>
      </trkpt>
      <trkpt lat="51.288181247692" lon="4.490424558168">
        <ele>0</ele>
        <time>2020-06-06T11:47:59Z</time>
      </trkpt>
      <trkpt lat="51.287923336629" lon="4.489908736042">
        <ele>0</ele>
        <time>2020-06-06T11:48:08Z</time>
      </trkpt>
      <trkpt lat="51.287571548286" lon="4.489208344478">
        <ele>0</ele>
        <time>2020-06-06T11:48:21Z</time>
      </trkpt>
      <trkpt lat="51.287145663947" lon="4.488669472127">
        <ele>0.2</ele>
        <time>2020-06-06T11:48:33Z</time>
      </trkpt>
      <trkpt lat="51.286790439025" lon="4.488248365471">
        <ele>1</ele>
        <time>2020-06-06T11:48:43Z</time>
      </trkpt>
      <trkpt lat="51.286350137818" lon="4.487734555001">
        <ele>1.2</ele>
        <time>2020-06-06T11:48:55Z</time>
      </trkpt>
      <trkpt lat="51.285884607092" lon="4.487170285493">
        <ele>1</ele>
        <time>2020-06-06T11:49:07Z</time>
      </trkpt>
      <trkpt lat="51.285437935641" lon="4.486617918283">
        <ele>1.8</ele>
        <time>2020-06-06T11:49:18Z</time>
      </trkpt>
      <trkpt lat="51.28501473351" lon="4.486077369552">
        <ele>0.4</ele>
        <time>2020-06-06T11:49:29Z</time>
      </trkpt>
      <trkpt lat="51.284580048176" lon="4.48547823134">
        <ele>1.4</ele>
        <time>2020-06-06T11:49:42Z</time>
      </trkpt>
      <trkpt lat="51.284373266703" lon="4.485191402722">
        <ele>1.6</ele>
        <time>2020-06-06T11:49:48Z</time>
      </trkpt>
      <trkpt lat="51.284326663339" lon="4.485063075833">
        <ele>2</ele>
        <time>2020-06-06T11:49:50Z</time>
      </trkpt>
      <trkpt lat="51.284308390797" lon="4.484761159795">
        <ele>2.2</ele>
        <time>2020-06-06T11:49:54Z</time>
      </trkpt>
      <trkpt lat="51.284332698307" lon="4.484549349182">
        <ele>3.4</ele>
        <time>2020-06-06T11:49:57Z</time>
      </trkpt>
      <trkpt lat="51.284513076795" lon="4.483708644612">
        <ele>6.2</ele>
        <time>2020-06-06T11:50:11Z</time>
      </trkpt>
      <trkpt lat="51.284649617946" lon="4.483321484651">
        <ele>7</ele>
        <time>2020-06-06T11:50:20Z</time>
      </trkpt>
      <trkpt lat="51.28458306566" lon="4.48283458008">
        <ele>11.6</ele>
        <time>2020-06-06T11:51:12Z</time>
      </trkpt>
      <trkpt lat="51.284425066845" lon="4.482665852433">
        <ele>10</ele>
        <time>2020-06-06T11:51:16Z</time>
      </trkpt>
      <trkpt lat="51.283965235811" lon="4.482085992591">
        <ele>2.6</ele>
        <time>2020-06-06T11:51:27Z</time>
      </trkpt>
      <trkpt lat="51.283510433917" lon="4.481575953976">
        <ele>0</ele>
        <time>2020-06-06T11:51:37Z</time>
      </trkpt>
      <trkpt lat="51.283061415534" lon="4.48101738416">
        <ele>0</ele>
        <time>2020-06-06T11:51:48Z</time>
      </trkpt>
      <trkpt lat="51.282622203974" lon="4.480483540949">
        <ele>0</ele>
        <time>2020-06-06T11:51:58Z</time>
      </trkpt>
      <trkpt lat="51.282174191419" lon="4.479959756018">
        <ele>0</ele>
        <time>2020-06-06T11:52:08Z</time>
      </trkpt>
      <trkpt lat="51.28172399957" lon="4.479414681061">
        <ele>0</ele>
        <time>2020-06-06T11:52:18Z</time>
      </trkpt>
      <trkpt lat="51.281259307034" lon="4.478886537542">
        <ele>0</ele>
        <time>2020-06-06T11:52:29Z</time>
      </trkpt>
      <trkpt lat="51.280801906751" lon="4.478363423163">
        <ele>0</ele>
        <time>2020-06-06T11:52:40Z</time>
      </trkpt>
      <trkpt lat="51.280358085146" lon="4.477842236621">
        <ele>0</ele>
        <time>2020-06-06T11:52:52Z</time>
      </trkpt>
      <trkpt lat="51.279902864157" lon="4.477313757826">
        <ele>0</ele>
        <time>2020-06-06T11:53:03Z</time>
      </trkpt>
      <trkpt lat="51.279428029522" lon="4.476741860789">
        <ele>2.2</ele>
        <time>2020-06-06T11:53:14Z</time>
      </trkpt>
      <trkpt lat="51.278958475484" lon="4.476197540203">
        <ele>2.8</ele>
        <time>2020-06-06T11:53:24Z</time>
      </trkpt>
      <trkpt lat="51.27849026255" lon="4.475641652595">
        <ele>0.2</ele>
        <time>2020-06-06T11:53:34Z</time>
      </trkpt>
      <trkpt lat="51.278018613037" lon="4.47513161398">
        <ele>1.8</ele>
        <time>2020-06-06T11:53:44Z</time>
      </trkpt>
      <trkpt lat="51.277552244121" lon="4.474595423837">
        <ele>2</ele>
        <time>2020-06-06T11:53:54Z</time>
      </trkpt>
      <trkpt lat="51.276707935334" lon="4.473605689085">
        <ele>2.6</ele>
        <time>2020-06-06T11:54:13Z</time>
      </trkpt>
      <trkpt lat="51.276249445404" lon="4.473066900553">
        <ele>0.2</ele>
        <time>2020-06-06T11:54:23Z</time>
      </trkpt>
      <trkpt lat="51.275796571347" lon="4.4725315486">
        <ele>0.4</ele>
        <time>2020-06-06T11:54:33Z</time>
      </trkpt>
      <trkpt lat="51.275347133869" lon="4.471975409535">
        <ele>0</ele>
        <time>2020-06-06T11:54:44Z</time>
      </trkpt>
      <trkpt lat="51.274910939793" lon="4.471464700368">
        <ele>0</ele>
        <time>2020-06-06T11:54:54Z</time>
      </trkpt>
      <trkpt lat="51.27444515761" lon="4.470908477484">
        <ele>0</ele>
        <time>2020-06-06T11:55:05Z</time>
      </trkpt>
      <trkpt lat="51.273968562776" lon="4.47035309279">
        <ele>0</ele>
        <time>2020-06-06T11:55:16Z</time>
      </trkpt>
      <trkpt lat="51.273499846928" lon="4.469791756947">
        <ele>0</ele>
        <time>2020-06-06T11:55:27Z</time>
      </trkpt>
      <trkpt lat="51.273039345342" lon="4.469215752779">
        <ele>0</ele>
        <time>2020-06-06T11:55:38Z</time>
      </trkpt>
      <trkpt lat="51.272568869295" lon="4.468712168227">
        <ele>0</ele>
        <time>2020-06-06T11:55:49Z</time>
      </trkpt>
      <trkpt lat="51.272118593627" lon="4.468173044419">
        <ele>0</ele>
        <time>2020-06-06T11:56:00Z</time>
      </trkpt>
      <trkpt lat="51.271648620494" lon="4.467657557569">
        <ele>0</ele>
        <time>2020-06-06T11:56:11Z</time>
      </trkpt>
      <trkpt lat="51.271206475269" lon="4.467137209217">
        <ele>0</ele>
        <time>2020-06-06T11:56:21Z</time>
      </trkpt>
      <trkpt lat="51.270753433574" lon="4.466593894459">
        <ele>0</ele>
        <time>2020-06-06T11:56:31Z</time>
      </trkpt>
      <trkpt lat="51.270282538432" lon="4.466057285221">
        <ele>0</ele>
        <time>2020-06-06T11:56:42Z</time>
      </trkpt>
      <trkpt lat="51.269843410691" lon="4.465543223294">
        <ele>0</ele>
        <time>2020-06-06T11:56:53Z</time>
      </trkpt>
      <trkpt lat="51.269416352886" lon="4.465014325404">
        <ele>0</ele>
        <time>2020-06-06T11:57:04Z</time>
      </trkpt>
      <trkpt lat="51.268961383354" lon="4.464434465562">
        <ele>0</ele>
        <time>2020-06-06T11:57:16Z</time>
      </trkpt>
      <trkpt lat="51.26874127466" lon="4.464143445994">
        <ele>0</ele>
        <time>2020-06-06T11:57:22Z</time>
      </trkpt>
      <trkpt lat="51.268301727824" lon="4.463552270587">
        <ele>0</ele>
        <time>2020-06-06T11:57:35Z</time>
      </trkpt>
      <trkpt lat="51.268160576628" lon="4.463443808801">
        <ele>0</ele>
        <time>2020-06-06T11:57:38Z</time>
      </trkpt>
      <trkpt lat="51.26800618203" lon="4.463386811881">
        <ele>0</ele>
        <time>2020-06-06T11:57:41Z</time>
      </trkpt>
      <trkpt lat="51.267556325457" lon="4.462856572887">
        <ele>0</ele>
        <time>2020-06-06T11:57:53Z</time>
      </trkpt>
      <trkpt lat="51.267457419037" lon="4.462767221833">
        <ele>0</ele>
        <time>2020-06-06T11:57:55Z</time>
      </trkpt>
      <trkpt lat="51.267052992362" lon="4.462527499493">
        <ele>0</ele>
        <time>2020-06-06T11:58:45Z</time>
      </trkpt>
      <trkpt lat="51.266490985967" lon="4.46266269954">
        <ele>0</ele>
        <time>2020-06-06T11:58:56Z</time>
      </trkpt>
      <trkpt lat="51.265953789996" lon="4.462773759715">
        <ele>0</ele>
        <time>2020-06-06T11:59:07Z</time>
      </trkpt>
      <trkpt lat="51.265770310205" lon="4.462786835479">
        <ele>0</ele>
        <time>2020-06-06T11:59:11Z</time>
      </trkpt>
      <trkpt lat="51.265413744179" lon="4.462853387765">
        <ele>0</ele>
        <time>2020-06-06T11:59:20Z</time>
      </trkpt>
      <trkpt lat="51.264848636481" lon="4.462988671631">
        <ele>0.8</ele>
        <time>2020-06-06T11:59:32Z</time>
      </trkpt>
      <trkpt lat="51.264294928167" lon="4.463094199752">
        <ele>2.4</ele>
        <time>2020-06-06T11:59:43Z</time>
      </trkpt>
      <trkpt lat="51.263737028903" lon="4.463222191365">
        <ele>1.6</ele>
        <time>2020-06-06T11:59:54Z</time>
      </trkpt>
      <trkpt lat="51.263159935088" lon="4.463288408375">
        <ele>0.8</ele>
        <time>2020-06-06T12:00:05Z</time>
      </trkpt>
      <trkpt lat="51.262589882069" lon="4.46341287959">
        <ele>0</ele>
        <time>2020-06-06T12:00:15Z</time>
      </trkpt>
      <trkpt lat="51.262041454352" lon="4.463532321665">
        <ele>0</ele>
        <time>2020-06-06T12:00:24Z</time>
      </trkpt>
      <trkpt lat="51.261478609767" lon="4.463598873951">
        <ele>0</ele>
        <time>2020-06-06T12:00:34Z</time>
      </trkpt>
      <trkpt lat="51.260893888423" lon="4.463695517258">
        <ele>0</ele>
        <time>2020-06-06T12:00:46Z</time>
      </trkpt>
      <trkpt lat="51.260321153196" lon="4.463770283806">
        <ele>0</ele>
        <time>2020-06-06T12:00:57Z</time>
      </trkpt>
      <trkpt lat="51.26009450662" lon="4.46371965713">
        <ele>0</ele>
        <time>2020-06-06T12:01:02Z</time>
      </trkpt>
      <trkpt lat="51.260056285156" lon="4.463697109819">
        <ele>0</ele>
        <time>2020-06-06T12:01:03Z</time>
      </trkpt>
      <trkpt lat="51.259638615079" lon="4.463105682955">
        <ele>0</ele>
        <time>2020-06-06T12:01:33Z</time>
      </trkpt>
      <trkpt lat="51.259110303922" lon="4.46268365429">
        <ele>0</ele>
        <time>2020-06-06T12:01:44Z</time>
      </trkpt>
      <trkpt lat="51.258565312784" lon="4.462393221455">
        <ele>0</ele>
        <time>2020-06-06T12:01:54Z</time>
      </trkpt>
      <trkpt lat="51.258048652468" lon="4.462125335931">
        <ele>0</ele>
        <time>2020-06-06T12:02:04Z</time>
      </trkpt>
      <trkpt lat="51.257549007409" lon="4.461776229796">
        <ele>0</ele>
        <time>2020-06-06T12:02:14Z</time>
      </trkpt>
      <trkpt lat="51.257055313499" lon="4.46129058251">
        <ele>0</ele>
        <time>2020-06-06T12:02:25Z</time>
      </trkpt>
      <trkpt lat="51.256560446123" lon="4.460870816958">
        <ele>0</ele>
        <time>2020-06-06T12:02:35Z</time>
      </trkpt>
      <trkpt lat="51.256052000069" lon="4.460418278177">
        <ele>0</ele>
        <time>2020-06-06T12:02:45Z</time>
      </trkpt>
      <trkpt lat="51.255554282847" lon="4.459915699453">
        <ele>0</ele>
        <time>2020-06-06T12:02:56Z</time>
      </trkpt>
      <trkpt lat="51.25506117567" lon="4.459461568111">
        <ele>0</ele>
        <time>2020-06-06T12:03:07Z</time>
      </trkpt>
      <trkpt lat="51.254595225849" lon="4.459012214452">
        <ele>0</ele>
        <time>2020-06-06T12:03:18Z</time>
      </trkpt>
      <trkpt lat="51.254099855559" lon="4.458565040087">
        <ele>0</ele>
        <time>2020-06-06T12:03:30Z</time>
      </trkpt>
      <trkpt lat="51.25359853412" lon="4.458075369489">
        <ele>0</ele>
        <time>2020-06-06T12:03:42Z</time>
      </trkpt>
      <trkpt lat="51.253110288445" lon="4.457597265913">
        <ele>0</ele>
        <time>2020-06-06T12:03:53Z</time>
      </trkpt>
      <trkpt lat="51.252850281907" lon="4.457325357077">
        <ele>0</ele>
        <time>2020-06-06T12:03:59Z</time>
      </trkpt>
      <trkpt lat="51.252756069351" lon="4.45723374291">
        <ele>0</ele>
        <time>2020-06-06T12:04:01Z</time>
      </trkpt>
      <trkpt lat="51.252602429124" lon="4.457120419622">
        <ele>0</ele>
        <time>2020-06-06T12:04:04Z</time>
      </trkpt>
      <trkpt lat="51.252132791267" lon="4.456683722632">
        <ele>0</ele>
        <time>2020-06-06T12:04:14Z</time>
      </trkpt>
      <trkpt lat="51.251598026047" lon="4.456303938743">
        <ele>0</ele>
        <time>2020-06-06T12:04:24Z</time>
      </trkpt>
      <trkpt lat="51.251105002689" lon="4.455855087998">
        <ele>0</ele>
        <time>2020-06-06T12:04:34Z</time>
      </trkpt>
      <trkpt lat="51.251010790133" lon="4.455767664781">
        <ele>0</ele>
        <time>2020-06-06T12:04:36Z</time>
      </trkpt>
      <trkpt lat="51.250530674901" lon="4.455263744953">
        <ele>0</ele>
        <time>2020-06-06T12:04:47Z</time>
      </trkpt>
      <trkpt lat="51.250062629605" lon="4.45483484313">
        <ele>0</ele>
        <time>2020-06-06T12:04:57Z</time>
      </trkpt>
      <trkpt lat="51.249841347445" lon="4.454642478525">
        <ele>0</ele>
        <time>2020-06-06T12:05:02Z</time>
      </trkpt>
      <trkpt lat="51.249048503524" lon="4.453969076679">
        <ele>0</ele>
        <time>2020-06-06T12:05:34Z</time>
      </trkpt>
      <trkpt lat="51.24884851139" lon="4.453766067061">
        <ele>0</ele>
        <time>2020-06-06T12:05:39Z</time>
      </trkpt>
      <trkpt lat="51.248367055054" lon="4.453330543537">
        <ele>0</ele>
        <time>2020-06-06T12:05:49Z</time>
      </trkpt>
      <trkpt lat="51.248108054344" lon="4.453090150645">
        <ele>0</ele>
        <time>2020-06-06T12:05:55Z</time>
      </trkpt>
      <trkpt lat="51.24803714347" lon="4.452969116009">
        <ele>0</ele>
        <time>2020-06-06T12:05:57Z</time>
      </trkpt>
      <trkpt lat="51.247758361476" lon="4.452387663606">
        <ele>0</ele>
        <time>2020-06-06T12:06:06Z</time>
      </trkpt>
      <trkpt lat="51.247620814497" lon="4.452110055078">
        <ele>0</ele>
        <time>2020-06-06T12:06:11Z</time>
      </trkpt>
      <trkpt lat="51.247295680596" lon="4.451412261903">
        <ele>0</ele>
        <time>2020-06-06T12:06:21Z</time>
      </trkpt>
      <trkpt lat="51.246987645771" lon="4.450693011064">
        <ele>0</ele>
        <time>2020-06-06T12:06:31Z</time>
      </trkpt>
      <trkpt lat="51.246684388629" lon="4.449957583158">
        <ele>0</ele>
        <time>2020-06-06T12:06:42Z</time>
      </trkpt>
      <trkpt lat="51.246336204503" lon="4.449252078635">
        <ele>0</ele>
        <time>2020-06-06T12:06:53Z</time>
      </trkpt>
      <trkpt lat="51.246120119121" lon="4.448819572595">
        <ele>0</ele>
        <time>2020-06-06T12:07:00Z</time>
      </trkpt>
      <trkpt lat="51.245761122344" lon="4.448643804152">
        <ele>10</ele>
        <time>2020-06-06T12:08:41Z</time>
      </trkpt>
      <trkpt lat="51.245629526514" lon="4.448818902043">
        <ele>11.2</ele>
        <time>2020-06-06T12:08:45Z</time>
      </trkpt>
      <trkpt lat="51.245516454683" lon="4.448890734926">
        <ele>11.2</ele>
        <time>2020-06-06T12:08:47Z</time>
      </trkpt>
      <trkpt lat="51.244992250657" lon="4.449127775058">
        <ele>10</ele>
        <time>2020-06-06T12:08:54Z</time>
      </trkpt>
      <trkpt lat="51.244420018344" lon="4.449401527912">
        <ele>4.8</ele>
        <time>2020-06-06T12:09:02Z</time>
      </trkpt>
      <trkpt lat="51.243882403278" lon="4.449628090669">
        <ele>2.6</ele>
        <time>2020-06-06T12:09:10Z</time>
      </trkpt>
      <trkpt lat="51.243362893116" lon="4.449884073895">
        <ele>0.4</ele>
        <time>2020-06-06T12:09:19Z</time>
      </trkpt>
      <trkpt lat="51.242838018538" lon="4.450217170601">
        <ele>0</ele>
        <time>2020-06-06T12:09:28Z</time>
      </trkpt>
      <trkpt lat="51.242295374332" lon="4.450581950889">
        <ele>1.6</ele>
        <time>2020-06-06T12:09:37Z</time>
      </trkpt>
      <trkpt lat="51.241769577745" lon="4.450981516062">
        <ele>3.6</ele>
        <time>2020-06-06T12:09:46Z</time>
      </trkpt>
      <trkpt lat="51.241256270189" lon="4.451426930228">
        <ele>1</ele>
        <time>2020-06-06T12:09:55Z</time>
      </trkpt>
      <trkpt lat="51.240751009257" lon="4.451793722172">
        <ele>0.8</ele>
        <time>2020-06-06T12:10:04Z</time>
      </trkpt>
      <trkpt lat="51.240222781919" lon="4.452204519091">
        <ele>0.8</ele>
        <time>2020-06-06T12:10:14Z</time>
      </trkpt>
      <trkpt lat="51.239738308099" lon="4.452602575522">
        <ele>2.8</ele>
        <time>2020-06-06T12:10:23Z</time>
      </trkpt>
      <trkpt lat="51.239214104073" lon="4.452982946144">
        <ele>3.4</ele>
        <time>2020-06-06T12:10:34Z</time>
      </trkpt>
      <trkpt lat="51.238753183392" lon="4.453284946001">
        <ele>4.2</ele>
        <time>2020-06-06T12:10:45Z</time>
      </trkpt>
      <trkpt lat="51.238233421773" lon="4.453670513401">
        <ele>5.2</ele>
        <time>2020-06-06T12:10:59Z</time>
      </trkpt>
      <trkpt lat="51.237717934923" lon="4.454016266776">
        <ele>6.4</ele>
        <time>2020-06-06T12:11:11Z</time>
      </trkpt>
      <trkpt lat="51.237202615711" lon="4.454345843084">
        <ele>3</ele>
        <time>2020-06-06T12:11:22Z</time>
      </trkpt>
      <trkpt lat="51.236683440825" lon="4.454667708044">
        <ele>2</ele>
        <time>2020-06-06T12:11:31Z</time>
      </trkpt>
      <trkpt lat="51.236540697068" lon="4.454737696909">
        <ele>1.8</ele>
        <time>2020-06-06T12:11:33Z</time>
      </trkpt>
      <trkpt lat="51.235830163405" lon="4.455248154619">
        <ele>0</ele>
        <time>2020-06-06T12:11:43Z</time>
      </trkpt>
      <trkpt lat="51.235335631305" lon="4.455626010671">
        <ele>0</ele>
        <time>2020-06-06T12:11:50Z</time>
      </trkpt>
      <trkpt lat="51.234822826663" lon="4.456028509509">
        <ele>0</ele>
        <time>2020-06-06T12:11:58Z</time>
      </trkpt>
      <trkpt lat="51.234327624011" lon="4.456408293398">
        <ele>0</ele>
        <time>2020-06-06T12:12:06Z</time>
      </trkpt>
      <trkpt lat="51.2337937808" lon="4.456822107801">
        <ele>0</ele>
        <time>2020-06-06T12:12:15Z</time>
      </trkpt>
      <trkpt lat="51.233261865426" lon="4.457145984417">
        <ele>0</ele>
        <time>2020-06-06T12:12:25Z</time>
      </trkpt>
      <trkpt lat="51.233090120295" lon="4.457224774277">
        <ele>0</ele>
        <time>2020-06-06T12:12:28Z</time>
      </trkpt>
      <trkpt lat="51.232787785162" lon="4.457331475864">
        <ele>0</ele>
        <time>2020-06-06T12:12:34Z</time>
      </trkpt>
      <trkpt lat="51.232706480732" lon="4.457311778399">
        <ele>0</ele>
        <time>2020-06-06T12:12:36Z</time>
      </trkpt>
      <trkpt lat="51.232671528209" lon="4.457291913296">
        <ele>0</ele>
        <time>2020-06-06T12:12:37Z</time>
      </trkpt>
      <trkpt lat="51.232237597246" lon="4.456839206877">
        <ele>2.8</ele>
        <time>2020-06-06T12:13:56Z</time>
      </trkpt>
      <trkpt lat="51.232110360004" lon="4.456740300457">
        <ele>2.6</ele>
        <time>2020-06-06T12:13:59Z</time>
      </trkpt>
      <trkpt lat="51.231639548681" lon="4.456306034218">
        <ele>0</ele>
        <time>2020-06-06T12:14:09Z</time>
      </trkpt>
      <trkpt lat="51.231501582607" lon="4.456195812233">
        <ele>0</ele>
        <time>2020-06-06T12:14:12Z</time>
      </trkpt>
      <trkpt lat="51.231390270975" lon="4.456241996502">
        <ele>0</ele>
        <time>2020-06-06T12:14:15Z</time>
      </trkpt>
      <trkpt lat="51.230856930678" lon="4.456513821519">
        <ele>0</ele>
        <time>2020-06-06T12:14:27Z</time>
      </trkpt>
      <trkpt lat="51.230267264013" lon="4.456668467574">
        <ele>0</ele>
        <time>2020-06-06T12:14:37Z</time>
      </trkpt>
      <trkpt lat="51.229692014216" lon="4.456794866626">
        <ele>8.4</ele>
        <time>2020-06-06T12:14:47Z</time>
      </trkpt>
      <trkpt lat="51.229658067521" lon="4.456928893207">
        <ele>9.4</ele>
        <time>2020-06-06T12:14:49Z</time>
      </trkpt>
      <trkpt lat="51.229672819665" lon="4.457114049378">
        <ele>8.8</ele>
        <time>2020-06-06T12:14:51Z</time>
      </trkpt>
      <trkpt lat="51.22977298337" lon="4.458038824405">
        <ele>11</ele>
        <time>2020-06-06T12:15:00Z</time>
      </trkpt>
      <trkpt lat="51.229902316087" lon="4.458867626677">
        <ele>7.4</ele>
        <time>2020-06-06T12:15:08Z</time>
      </trkpt>
      <trkpt lat="51.230004575267" lon="4.458995702109">
        <ele>6.4</ele>
        <time>2020-06-06T12:15:11Z</time>
      </trkpt>
      <trkpt lat="51.230113623786" lon="4.458979022128">
        <ele>5.4</ele>
        <time>2020-06-06T12:15:13Z</time>
      </trkpt>
      <trkpt lat="51.230312693911" lon="4.458934514239">
        <ele>3.2</ele>
        <time>2020-06-06T12:15:16Z</time>
      </trkpt>
      <trkpt lat="51.230406822648" lon="4.459017159773">
        <ele>3</ele>
        <time>2020-06-06T12:15:18Z</time>
      </trkpt>
      <trkpt lat="51.230446552854" lon="4.459173398389">
        <ele>3</ele>
        <time>2020-06-06T12:15:20Z</time>
      </trkpt>
      <trkpt lat="51.230496006064" lon="4.459583273299">
        <ele>4</ele>
        <time>2020-06-06T12:15:25Z</time>
      </trkpt>
      <trkpt lat="51.230511009665" lon="4.459738841363">
        <ele>4.6</ele>
        <time>2020-06-06T12:15:27Z</time>
      </trkpt>
      <trkpt lat="51.230550656052" lon="4.459954926745">
        <ele>5.4</ele>
        <time>2020-06-06T12:15:31Z</time>
      </trkpt>
      <trkpt lat="51.230515200615" lon="4.459968673061">
        <ele>3.8</ele>
        <time>2020-06-06T12:15:33Z</time>
      </trkpt>
      <trkpt lat="51.230463065197" lon="4.459415467661">
        <ele>3.2</ele>
        <time>2020-06-06T12:15:40Z</time>
      </trkpt>
    </trkseg>
  </trk>
</gpx>